Time,TemperatureF,DewpointF,PressureIn,WindDirection,WindDirectionDegrees,WindSpeedMPH,WindSpeedGustMPH,Humidity,HourlyPrecipIn,Conditions,Clouds,dailyrainin,SoftwareType,DateUTC
2013-03-25 00:00:00,34.0,29.7,30.15,NE,34,0.0,0.0,84,0.00,,,0.00,Wunderground v.1.15,2013-03-25 07:00:00,
2013-03-25 00:03:00,33.9,29.6,30.15,NE,34,0.0,0.0,84,0.00,,,0.00,Wunderground v.1.15,2013-03-25 07:03:00,
2013-03-25 00:05:00,33.9,29.9,30.15,NE,34,0.0,0.0,85,0.00,,,0.00,Wunderground v.1.15,2013-03-25 07:05:00,
2013-03-25 00:06:00,33.7,29.7,30.15,NE,34,0.0,0.0,85,0.00,,,0.00,Wunderground v.1.15,2013-03-25 07:06:00,
2013-03-25 00:08:00,33.7,29.7,30.15,NE,34,0.0,0.0,85,0.00,,,0.00,Wunderground v.1.15,2013-03-25 07:08:00,
2013-03-25 00:10:00,33.7,29.7,30.15,NE,34,0.0,0.0,85,0.00,,,0.00,Wunderground v.1.15,2013-03-25 07:10:00,
2013-03-25 00:11:00,33.7,29.7,30.15,NE,34,0.0,0.0,85,0.00,,,0.00,Wunderground v.1.15,2013-03-25 07:11:00,
2013-03-25 00:13:00,33.7,29.7,30.15,NE,34,0.0,0.0,85,0.00,,,0.00,Wunderground v.1.15,2013-03-25 07:13:00,
2013-03-25 00:16:00,33.6,29.9,30.15,NE,34,0.0,0.0,86,0.00,,,0.00,Wunderground v.1.15,2013-03-25 07:16:00,
2013-03-25 00:17:00,33.6,29.9,30.15,NE,34,0.0,0.0,86,0.00,,,0.00,Wunderground v.1.15,2013-03-25 07:17:00,
2013-03-25 00:19:00,33.6,29.9,30.15,NE,34,0.0,0.0,86,0.00,,,0.00,Wunderground v.1.15,2013-03-25 07:19:00,
2013-03-25 00:22:00,33.4,29.7,30.15,NE,34,0.0,0.0,86,0.00,,,0.00,Wunderground v.1.15,2013-03-25 07:22:00,
2013-03-25 00:23:00,33.4,29.7,30.15,NE,34,0.0,0.0,86,0.00,,,0.00,Wunderground v.1.15,2013-03-25 07:23:00,
2013-03-25 00:24:00,33.4,29.7,30.15,NE,34,0.0,0.0,86,0.00,,,0.00,Wunderground v.1.15,2013-03-25 07:24:00,
2013-03-25 00:28:00,33.3,29.6,30.15,NE,34,0.0,0.0,86,0.00,,,0.00,Wunderground v.1.15,2013-03-25 07:28:00,
2013-03-25 00:29:00,33.3,29.6,30.15,NE,34,0.0,0.0,86,0.00,,,0.00,Wunderground v.1.15,2013-03-25 07:29:00,
2013-03-25 00:30:00,33.3,29.6,30.15,NE,34,0.0,0.0,86,0.00,,,0.00,Wunderground v.1.15,2013-03-25 07:30:00,
2013-03-25 00:33:00,33.2,29.5,30.15,NE,34,0.0,0.0,86,0.00,,,0.00,Wunderground v.1.15,2013-03-25 07:33:00,
2013-03-25 00:34:00,33.2,29.5,30.15,NE,34,0.0,0.0,86,0.00,,,0.00,Wunderground v.1.15,2013-03-25 07:34:00,
2013-03-25 00:35:00,33.2,29.5,30.15,NE,34,0.0,0.0,86,0.00,,,0.00,Wunderground v.1.15,2013-03-25 07:35:00,
2013-03-25 00:36:00,33.2,29.5,30.15,NE,34,0.0,0.0,86,0.00,,,0.00,Wunderground v.1.15,2013-03-25 07:36:00,
2013-03-25 00:38:00,33.2,29.5,30.15,NE,34,0.0,0.0,86,0.00,,,0.00,Wunderground v.1.15,2013-03-25 07:38:00,
2013-03-25 00:39:00,33.2,29.5,30.15,NE,34,0.0,0.0,86,0.00,,,0.00,Wunderground v.1.15,2013-03-25 07:39:00,
2013-03-25 00:40:00,33.2,29.5,30.15,NE,34,0.0,0.0,86,0.00,,,0.00,Wunderground v.1.15,2013-03-25 07:40:00,
2013-03-25 00:41:00,33.2,29.5,30.15,NE,34,0.0,0.0,86,0.00,,,0.00,Wunderground v.1.15,2013-03-25 07:41:00,
2013-03-25 00:43:00,33.0,29.3,30.15,NE,34,0.0,0.0,86,0.00,,,0.00,Wunderground v.1.15,2013-03-25 07:43:00,
2013-03-25 00:45:00,33.0,29.3,30.14,NE,34,0.0,0.0,86,0.00,,,0.00,Wunderground v.1.15,2013-03-25 07:45:00,
2013-03-25 00:47:00,33.0,29.3,30.14,NE,34,0.0,0.0,86,0.00,,,0.00,Wunderground v.1.15,2013-03-25 07:47:00,
2013-03-25 00:50:00,32.9,29.5,30.14,NE,34,0.0,0.0,87,0.00,,,0.00,Wunderground v.1.15,2013-03-25 07:50:00,
2013-03-25 00:52:00,32.9,29.2,30.14,NE,34,0.0,0.0,86,0.00,,,0.00,Wunderground v.1.15,2013-03-25 07:52:00,
2013-03-25 00:55:00,32.7,29.0,30.14,NE,34,0.0,0.0,86,0.00,,,0.00,Wunderground v.1.15,2013-03-25 07:55:00,
2013-03-25 00:56:00,32.7,29.0,30.14,NE,34,0.0,0.0,86,0.00,,,0.00,Wunderground v.1.15,2013-03-25 07:56:00,
2013-03-25 00:58:00,32.7,29.3,30.14,NE,34,0.0,0.0,87,0.00,,,0.00,Wunderground v.1.15,2013-03-25 07:58:00,
2013-03-25 01:03:00,32.6,29.2,30.14,NE,34,0.0,0.0,87,0.00,,,0.00,Wunderground v.1.15,2013-03-25 08:03:00,
2013-03-25 01:04:00,32.6,29.2,30.14,NE,34,0.0,0.0,87,0.00,,,0.00,Wunderground v.1.15,2013-03-25 08:04:00,
2013-03-25 01:08:00,32.4,29.0,30.14,NE,34,0.0,0.0,87,0.00,,,0.00,Wunderground v.1.15,2013-03-25 08:08:00,
2013-03-25 01:09:00,32.4,29.0,30.14,NE,34,0.0,0.0,87,0.00,,,0.00,Wunderground v.1.15,2013-03-25 08:09:00,
2013-03-25 01:13:00,32.4,29.0,30.14,NE,34,0.0,0.0,87,0.00,,,0.00,Wunderground v.1.15,2013-03-25 08:13:00,
2013-03-25 01:14:00,32.4,29.0,30.14,NE,34,0.0,0.0,87,0.00,,,0.00,Wunderground v.1.15,2013-03-25 08:14:00,
2013-03-25 01:15:00,32.4,29.0,30.13,NE,34,0.0,0.0,87,0.00,,,0.00,Wunderground v.1.15,2013-03-25 08:15:00,
2013-03-25 01:18:00,32.3,28.9,30.13,NE,34,0.0,0.0,87,0.00,,,0.00,Wunderground v.1.15,2013-03-25 08:18:00,
2013-03-25 01:19:00,32.3,28.9,30.13,NE,34,0.0,0.0,87,0.00,,,0.00,Wunderground v.1.15,2013-03-25 08:19:00,
2013-03-25 01:20:00,32.3,28.9,30.13,NE,34,0.0,0.0,87,0.00,,,0.00,Wunderground v.1.15,2013-03-25 08:20:00,
2013-03-25 01:24:00,32.3,28.9,30.13,NE,34,0.0,0.0,87,0.00,,,0.00,Wunderground v.1.15,2013-03-25 08:24:00,
2013-03-25 01:25:00,32.3,28.9,30.13,NE,34,0.0,0.0,87,0.00,,,0.00,Wunderground v.1.15,2013-03-25 08:25:00,
2013-03-25 01:29:00,32.1,28.7,30.13,NE,34,0.0,0.0,87,0.00,,,0.00,Wunderground v.1.15,2013-03-25 08:29:00,
2013-03-25 01:31:00,32.1,28.7,30.13,NE,34,0.0,0.0,87,0.00,,,0.00,Wunderground v.1.15,2013-03-25 08:31:00,
2013-03-25 01:34:00,32.0,28.6,30.13,NE,34,0.0,0.0,87,0.00,,,0.00,Wunderground v.1.15,2013-03-25 08:34:00,
2013-03-25 01:36:00,32.0,28.6,30.13,NE,34,0.0,0.0,87,0.00,,,0.00,Wunderground v.1.15,2013-03-25 08:36:00,
2013-03-25 01:38:00,32.0,28.6,30.13,NE,34,0.0,0.0,87,0.00,,,0.00,Wunderground v.1.15,2013-03-25 08:38:00,
2013-03-25 01:40:00,32.0,28.6,30.13,NE,34,0.0,0.0,87,0.00,,,0.00,Wunderground v.1.15,2013-03-25 08:40:00,
2013-03-25 01:42:00,32.0,28.8,30.13,NE,34,0.0,0.0,88,0.00,,,0.00,Wunderground v.1.15,2013-03-25 08:42:00,
2013-03-25 01:43:00,32.0,28.8,30.13,NE,34,0.0,0.0,88,0.00,,,0.00,Wunderground v.1.15,2013-03-25 08:43:00,
2013-03-25 01:45:00,31.8,28.7,30.13,NE,34,0.0,0.0,88,0.00,,,0.00,Wunderground v.1.15,2013-03-25 08:45:00,
2013-03-25 01:48:00,31.8,28.7,30.13,NE,34,0.0,0.0,88,0.00,,,0.00,Wunderground v.1.15,2013-03-25 08:48:00,
2013-03-25 01:49:00,31.8,28.7,30.13,NE,34,0.0,0.0,88,0.00,,,0.00,Wunderground v.1.15,2013-03-25 08:49:00,
2013-03-25 01:50:00,31.7,28.6,30.13,NE,34,0.0,0.0,88,0.00,,,0.00,Wunderground v.1.15,2013-03-25 08:50:00,
2013-03-25 01:51:00,31.7,28.6,30.13,NE,34,0.0,0.0,88,0.00,,,0.00,Wunderground v.1.15,2013-03-25 08:51:00,
2013-03-25 01:54:00,31.5,28.4,30.13,NE,34,0.0,0.0,88,0.00,,,0.00,Wunderground v.1.15,2013-03-25 08:54:00,
2013-03-25 01:57:00,31.5,28.4,30.13,NE,34,0.0,0.0,88,0.00,,,0.00,Wunderground v.1.15,2013-03-25 08:57:00,
2013-03-25 01:59:00,31.4,28.3,30.13,NE,34,0.0,0.0,88,0.00,,,0.00,Wunderground v.1.15,2013-03-25 08:59:00,
2013-03-25 02:00:00,31.4,28.3,30.13,NE,34,0.0,0.0,88,0.00,,,0.00,Wunderground v.1.15,2013-03-25 09:00:00,
2013-03-25 02:02:00,31.4,28.3,30.13,NE,34,0.0,0.0,88,0.00,,,0.00,Wunderground v.1.15,2013-03-25 09:02:00,
2013-03-25 02:03:00,31.4,28.3,30.13,NE,34,0.0,0.0,88,0.00,,,0.00,Wunderground v.1.15,2013-03-25 09:03:00,
2013-03-25 02:05:00,31.2,28.1,30.13,NE,34,0.0,0.0,88,0.00,,,0.00,Wunderground v.1.15,2013-03-25 09:05:00,
2013-03-25 02:06:00,31.2,28.1,30.13,NE,34,0.0,0.0,88,0.00,,,0.00,Wunderground v.1.15,2013-03-25 09:06:00,
2013-03-25 02:07:00,31.2,28.1,30.13,NE,34,0.0,0.0,88,0.00,,,0.00,Wunderground v.1.15,2013-03-25 09:07:00,
2013-03-25 02:08:00,31.2,28.1,30.13,NE,34,0.0,0.0,88,0.00,,,0.00,Wunderground v.1.15,2013-03-25 09:08:00,
2013-03-25 02:10:00,31.2,28.3,30.13,NE,34,0.0,0.0,89,0.00,,,0.00,Wunderground v.1.15,2013-03-25 09:10:00,
2013-03-25 02:11:00,31.2,28.3,30.13,NE,34,0.0,0.0,89,0.00,,,0.00,Wunderground v.1.15,2013-03-25 09:11:00,
2013-03-25 02:13:00,31.2,28.3,30.13,NE,34,0.0,0.0,89,0.00,,,0.00,Wunderground v.1.15,2013-03-25 09:13:00,
2013-03-25 02:14:00,31.2,28.3,30.13,NE,34,0.0,0.0,89,0.00,,,0.00,Wunderground v.1.15,2013-03-25 09:14:00,
2013-03-25 02:15:00,31.2,28.3,30.13,NE,34,0.0,0.0,89,0.00,,,0.00,Wunderground v.1.15,2013-03-25 09:15:00,
2013-03-25 02:17:00,31.2,28.3,30.12,NE,34,0.0,0.0,89,0.00,,,0.00,Wunderground v.1.15,2013-03-25 09:17:00,
2013-03-25 02:18:00,31.1,28.2,30.12,NE,34,0.0,0.0,89,0.00,,,0.00,Wunderground v.1.15,2013-03-25 09:18:00,
2013-03-25 02:20:00,31.1,28.2,30.12,NE,34,0.0,0.0,89,0.00,,,0.00,Wunderground v.1.15,2013-03-25 09:20:00,
2013-03-25 02:23:00,31.1,28.2,30.12,NE,34,0.0,0.0,89,0.00,,,0.00,Wunderground v.1.15,2013-03-25 09:23:00,
2013-03-25 02:25:00,31.1,28.2,30.12,NE,34,0.0,0.0,89,0.00,,,0.00,Wunderground v.1.15,2013-03-25 09:25:00,
2013-03-25 02:26:00,31.1,28.2,30.12,NE,34,0.0,0.0,89,0.00,,,0.00,Wunderground v.1.15,2013-03-25 09:26:00,
2013-03-25 02:29:00,31.1,28.2,30.12,NE,34,0.0,0.0,89,0.00,,,0.00,Wunderground v.1.15,2013-03-25 09:29:00,
2013-03-25 02:30:00,31.1,28.2,30.12,NE,34,0.0,0.0,89,0.00,,,0.00,Wunderground v.1.15,2013-03-25 09:30:00,
2013-03-25 02:31:00,31.1,28.2,30.12,NE,34,0.0,0.0,89,0.00,,,0.00,Wunderground v.1.15,2013-03-25 09:31:00,
2013-03-25 02:32:00,31.1,28.2,30.12,NE,34,0.0,0.0,89,0.00,,,0.00,Wunderground v.1.15,2013-03-25 09:32:00,
2013-03-25 02:34:00,31.1,28.2,30.12,NE,34,0.0,0.0,89,0.00,,,0.00,Wunderground v.1.15,2013-03-25 09:34:00,
2013-03-25 02:37:00,30.9,28.0,30.12,NE,34,0.0,0.0,89,0.00,,,0.00,Wunderground v.1.15,2013-03-25 09:37:00,
2013-03-25 02:39:00,30.9,28.0,30.12,NE,34,0.0,0.0,89,0.00,,,0.00,Wunderground v.1.15,2013-03-25 09:39:00,
2013-03-25 02:40:00,30.9,28.0,30.12,NE,34,0.0,0.0,89,0.00,,,0.00,Wunderground v.1.15,2013-03-25 09:40:00,
2013-03-25 02:42:00,30.9,28.0,30.12,NE,34,0.0,0.0,89,0.00,,,0.00,Wunderground v.1.15,2013-03-25 09:42:00,
2013-03-25 02:43:00,30.9,28.0,30.12,NE,34,0.0,0.0,89,0.00,,,0.00,Wunderground v.1.15,2013-03-25 09:43:00,
2013-03-25 02:44:00,30.9,28.0,30.12,NE,34,0.0,0.0,89,0.00,,,0.00,Wunderground v.1.15,2013-03-25 09:44:00,
2013-03-25 02:47:00,30.9,28.0,30.12,NE,34,0.0,0.0,89,0.00,,,0.00,Wunderground v.1.15,2013-03-25 09:47:00,
2013-03-25 02:48:00,30.9,28.0,30.12,NE,34,0.0,0.0,89,0.00,,,0.00,Wunderground v.1.15,2013-03-25 09:48:00,
2013-03-25 02:50:00,30.9,28.0,30.12,NE,34,0.0,0.0,89,0.00,,,0.00,Wunderground v.1.15,2013-03-25 09:50:00,
2013-03-25 02:53:00,30.9,28.3,30.12,NE,34,0.0,0.0,90,0.00,,,0.00,Wunderground v.1.15,2013-03-25 09:53:00,
2013-03-25 02:55:00,30.9,28.3,30.12,NE,34,0.0,0.0,90,0.00,,,0.00,Wunderground v.1.15,2013-03-25 09:55:00,
2013-03-25 02:58:00,30.9,28.3,30.12,NE,34,0.0,0.0,90,0.00,,,0.00,Wunderground v.1.15,2013-03-25 09:58:00,
2013-03-25 02:59:00,30.9,28.3,30.12,NE,34,0.0,0.0,90,0.00,,,0.00,Wunderground v.1.15,2013-03-25 09:59:00,
2013-03-25 03:00:00,30.9,28.3,30.12,NE,34,0.0,0.0,90,0.00,,,0.00,Wunderground v.1.15,2013-03-25 10:00:00,
2013-03-25 03:03:00,30.9,28.3,30.12,NE,34,0.0,0.0,90,0.00,,,0.00,Wunderground v.1.15,2013-03-25 10:03:00,
2013-03-25 03:04:00,30.9,28.3,30.12,NE,34,0.0,0.0,90,0.00,,,0.00,Wunderground v.1.15,2013-03-25 10:04:00,
2013-03-25 03:06:00,30.9,28.3,30.12,NE,34,0.0,0.0,90,0.00,,,0.00,Wunderground v.1.15,2013-03-25 10:06:00,
2013-03-25 03:07:00,30.9,28.3,30.12,NE,34,0.0,0.0,90,0.00,,,0.00,Wunderground v.1.15,2013-03-25 10:07:00,
2013-03-25 03:09:00,30.9,28.3,30.12,NE,34,0.0,0.0,90,0.00,,,0.00,Wunderground v.1.15,2013-03-25 10:09:00,
2013-03-25 03:12:00,30.9,28.3,30.12,NE,34,0.0,0.0,90,0.00,,,0.00,Wunderground v.1.15,2013-03-25 10:12:00,
2013-03-25 03:15:00,31.1,28.5,30.11,NE,34,0.0,0.0,90,0.00,,,0.00,Wunderground v.1.15,2013-03-25 10:15:00,
2013-03-25 03:19:00,31.1,28.5,30.11,NE,34,0.0,0.0,90,0.00,,,0.00,Wunderground v.1.15,2013-03-25 10:19:00,
2013-03-25 03:20:00,31.1,28.5,30.11,NE,34,0.0,0.0,90,0.00,,,0.00,Wunderground v.1.15,2013-03-25 10:20:00,
2013-03-25 03:24:00,31.1,28.5,30.11,NE,34,0.0,0.0,90,0.00,,,0.00,Wunderground v.1.15,2013-03-25 10:24:00,
2013-03-25 03:27:00,31.1,28.5,30.11,NE,34,0.0,0.0,90,0.00,,,0.00,Wunderground v.1.15,2013-03-25 10:27:00,
2013-03-25 03:29:00,31.1,28.5,30.11,NE,34,0.0,0.0,90,0.00,,,0.00,Wunderground v.1.15,2013-03-25 10:29:00,
2013-03-25 03:30:00,31.1,28.5,30.11,NE,34,0.0,0.0,90,0.00,,,0.00,Wunderground v.1.15,2013-03-25 10:30:00,
2013-03-25 03:32:00,31.1,28.5,30.11,NE,34,0.0,0.0,90,0.00,,,0.00,Wunderground v.1.15,2013-03-25 10:32:00,
2013-03-25 03:34:00,31.1,28.5,30.11,NE,34,0.0,0.0,90,0.00,,,0.00,Wunderground v.1.15,2013-03-25 10:34:00,
2013-03-25 03:36:00,31.1,28.5,30.11,NE,34,0.0,0.0,90,0.00,,,0.00,Wunderground v.1.15,2013-03-25 10:36:00,
2013-03-25 03:38:00,31.1,28.5,30.11,NE,34,0.0,0.0,90,0.00,,,0.00,Wunderground v.1.15,2013-03-25 10:38:00,
2013-03-25 03:40:00,31.1,28.5,30.11,NE,34,0.0,0.0,90,0.00,,,0.00,Wunderground v.1.15,2013-03-25 10:40:00,
2013-03-25 03:43:00,31.1,28.5,30.11,NE,34,0.0,0.0,90,0.00,,,0.00,Wunderground v.1.15,2013-03-25 10:43:00,
2013-03-25 03:44:00,31.1,28.5,30.11,NE,34,0.0,0.0,90,0.00,,,0.00,Wunderground v.1.15,2013-03-25 10:44:00,
2013-03-25 03:45:00,31.1,28.5,30.11,NE,34,0.0,0.0,90,0.00,,,0.00,Wunderground v.1.15,2013-03-25 10:45:00,
2013-03-25 03:49:00,31.1,28.5,30.11,NE,34,0.0,0.0,90,0.00,,,0.00,Wunderground v.1.15,2013-03-25 10:49:00,
2013-03-25 03:53:00,31.1,28.5,30.11,NE,34,0.0,0.0,90,0.00,,,0.00,Wunderground v.1.15,2013-03-25 10:53:00,
2013-03-25 03:54:00,31.1,28.5,30.11,NE,34,0.0,0.0,90,0.00,,,0.00,Wunderground v.1.15,2013-03-25 10:54:00,
2013-03-25 03:57:00,-999.9,-99.9,30.11,North,32767,-999.0,0.0,255,-99.99,,,0.00,Wunderground v.1.15,2013-03-25 10:57:00,
2013-03-25 03:58:00,-999.9,-99.9,30.11,North,32767,-999.0,0.0,255,-99.99,,,0.00,Wunderground v.1.15,2013-03-25 10:58:00,
2013-03-25 04:00:00,-999.9,-99.9,30.11,North,32767,-999.0,-999.0,255,-99.99,,,0.00,Wunderground v.1.15,2013-03-25 11:00:00,
2013-03-25 04:02:00,-999.9,-99.9,30.09,North,32767,-999.0,-999.0,255,-99.99,,,0.00,Wunderground v.1.15,2013-03-25 11:02:00,
2013-03-25 04:04:00,-999.9,-99.9,30.09,North,32767,-999.0,-999.0,255,-99.99,,,0.00,Wunderground v.1.15,2013-03-25 11:04:00,
2013-03-25 04:05:00,-999.9,-99.9,30.09,North,32767,-999.0,-999.0,255,-99.99,,,0.00,Wunderground v.1.15,2013-03-25 11:05:00,
2013-03-25 04:07:00,-999.9,-99.9,30.09,North,32767,-999.0,-999.0,255,-99.99,,,0.00,Wunderground v.1.15,2013-03-25 11:07:00,
2013-03-25 04:08:00,-999.9,-99.9,30.09,North,32767,-999.0,-999.0,255,-99.99,,,0.00,Wunderground v.1.15,2013-03-25 11:08:00,
2013-03-25 04:10:00,-999.9,-99.9,30.09,North,32767,-999.0,-999.0,255,-99.99,,,0.00,Wunderground v.1.15,2013-03-25 11:10:00,
2013-03-25 04:14:00,-999.9,-99.9,30.09,North,32767,-999.0,-999.0,255,-99.99,,,0.00,Wunderground v.1.15,2013-03-25 11:14:00,
2013-03-25 04:15:00,-999.9,-99.9,30.09,North,32767,-999.0,-999.0,255,-99.99,,,0.00,Wunderground v.1.15,2013-03-25 11:15:00,
2013-03-25 04:17:00,-999.9,-99.9,30.09,North,32767,-999.0,-999.0,255,-99.99,,,0.00,Wunderground v.1.15,2013-03-25 11:17:00,
2013-03-25 04:20:00,-999.9,-99.9,30.09,North,32767,-999.0,-999.0,255,-99.99,,,0.00,Wunderground v.1.15,2013-03-25 11:20:00,
2013-03-25 04:22:00,-999.9,-99.9,30.09,North,32767,-999.0,-999.0,255,-99.99,,,0.00,Wunderground v.1.15,2013-03-25 11:22:00,
2013-03-25 04:24:00,-999.9,-99.9,30.09,North,32767,-999.0,-999.0,255,-99.99,,,0.00,Wunderground v.1.15,2013-03-25 11:24:00,
2013-03-25 04:26:00,-999.9,-99.9,30.09,North,32767,-999.0,-999.0,255,-99.99,,,0.00,Wunderground v.1.15,2013-03-25 11:26:00,
2013-03-25 04:28:00,-999.9,-99.9,30.09,North,32767,-999.0,-999.0,255,-99.99,,,0.00,Wunderground v.1.15,2013-03-25 11:28:00,
2013-03-25 04:29:00,-999.9,-99.9,30.09,North,32767,-999.0,-999.0,255,-99.99,,,0.00,Wunderground v.1.15,2013-03-25 11:29:00,
2013-03-25 04:33:00,-999.9,-99.9,30.09,North,32767,-999.0,-999.0,255,-99.99,,,0.00,Wunderground v.1.15,2013-03-25 11:33:00,
2013-03-25 04:34:00,-999.9,-99.9,30.09,North,32767,-999.0,-999.0,255,-99.99,,,0.00,Wunderground v.1.15,2013-03-25 11:34:00,
2013-03-25 04:38:00,-999.9,-99.9,30.09,North,32767,-999.0,-999.0,255,-99.99,,,0.00,Wunderground v.1.15,2013-03-25 11:38:00,
2013-03-25 04:39:00,-999.9,-99.9,30.09,North,32767,-999.0,-999.0,255,-99.99,,,0.00,Wunderground v.1.15,2013-03-25 11:39:00,
2013-03-25 04:43:00,-999.9,-99.9,30.09,North,32767,-999.0,-999.0,255,-99.99,,,0.00,Wunderground v.1.15,2013-03-25 11:43:00,
2013-03-25 04:44:00,-999.9,-99.9,30.09,North,32767,-999.0,-999.0,255,-99.99,,,0.00,Wunderground v.1.15,2013-03-25 11:44:00,
2013-03-25 04:48:00,-999.9,-99.9,30.09,North,32767,-999.0,-999.0,255,-99.99,,,0.00,Wunderground v.1.15,2013-03-25 11:48:00,
2013-03-25 04:50:00,-999.9,-99.9,30.09,North,32767,-999.0,-999.0,255,-99.99,,,0.00,Wunderground v.1.15,2013-03-25 11:50:00,
2013-03-25 04:52:00,-999.9,-99.9,30.09,North,32767,-999.0,-999.0,255,-99.99,,,0.00,Wunderground v.1.15,2013-03-25 11:52:00,
2013-03-25 04:53:00,-999.9,-99.9,30.09,North,32767,-999.0,-999.0,255,-99.99,,,0.00,Wunderground v.1.15,2013-03-25 11:53:00,
2013-03-25 04:55:00,-999.9,-99.9,30.09,North,32767,-999.0,-999.0,255,-99.99,,,0.00,Wunderground v.1.15,2013-03-25 11:55:00,
2013-03-25 04:57:00,-999.9,-99.9,30.09,North,32767,-999.0,-999.0,255,-99.99,,,0.00,Wunderground v.1.15,2013-03-25 11:57:00,
2013-03-25 04:58:00,-999.9,-99.9,30.09,North,32767,-999.0,-999.0,255,-99.99,,,0.00,Wunderground v.1.15,2013-03-25 11:58:00,
2013-03-25 05:00:00,-999.9,-99.9,30.09,North,32767,-999.0,-999.0,255,-99.99,,,0.00,Wunderground v.1.15,2013-03-25 12:00:00,
2013-03-25 05:03:00,-999.9,-99.9,30.09,North,32767,-999.0,-999.0,255,-99.99,,,0.00,Wunderground v.1.15,2013-03-25 12:03:00,
2013-03-25 05:04:00,-999.9,-99.9,30.09,North,32767,-999.0,-999.0,255,-99.99,,,0.00,Wunderground v.1.15,2013-03-25 12:04:00,
2013-03-25 05:05:00,-999.9,-99.9,30.09,North,32767,-999.0,-999.0,255,-99.99,,,0.00,Wunderground v.1.15,2013-03-25 12:05:00,
2013-03-25 05:08:00,-999.9,-99.9,30.09,North,32767,-999.0,-999.0,255,-99.99,,,0.00,Wunderground v.1.15,2013-03-25 12:08:00,
2013-03-25 05:10:00,-999.9,-99.9,30.09,North,32767,-999.0,-999.0,255,-99.99,,,0.00,Wunderground v.1.15,2013-03-25 12:10:00,
2013-03-25 05:11:00,-999.9,-99.9,30.09,North,32767,-999.0,-999.0,255,-99.99,,,0.00,Wunderground v.1.15,2013-03-25 12:11:00,
2013-03-25 05:14:00,-999.9,-99.9,30.09,North,32767,-999.0,-999.0,255,-99.99,,,0.00,Wunderground v.1.15,2013-03-25 12:14:00,
2013-03-25 05:15:00,-999.9,-99.9,30.08,North,32767,-999.0,-999.0,255,-99.99,,,0.00,Wunderground v.1.15,2013-03-25 12:15:00,
2013-03-25 05:16:00,-999.9,-99.9,30.08,North,32767,-999.0,-999.0,255,-99.99,,,0.00,Wunderground v.1.15,2013-03-25 12:16:00,
2013-03-25 05:18:00,-999.9,-99.9,30.08,North,32767,-999.0,-999.0,255,-99.99,,,0.00,Wunderground v.1.15,2013-03-25 12:18:00,
2013-03-25 05:19:00,-999.9,-99.9,30.08,North,32767,-999.0,-999.0,255,-99.99,,,0.00,Wunderground v.1.15,2013-03-25 12:19:00,
2013-03-25 05:21:00,-999.9,-99.9,30.08,North,32767,-999.0,-999.0,255,-99.99,,,0.00,Wunderground v.1.15,2013-03-25 12:21:00,
2013-03-25 05:22:00,-999.9,-99.9,30.08,North,32767,-999.0,-999.0,255,-99.99,,,0.00,Wunderground v.1.15,2013-03-25 12:22:00,
2013-03-25 05:23:00,-999.9,-99.9,30.08,North,32767,-999.0,-999.0,255,-99.99,,,0.00,Wunderground v.1.15,2013-03-25 12:23:00,
2013-03-25 05:24:00,-999.9,-99.9,30.08,North,32767,-999.0,-999.0,255,-99.99,,,0.00,Wunderground v.1.15,2013-03-25 12:24:00,
2013-03-25 05:26:00,-999.9,-99.9,30.08,North,32767,-999.0,-999.0,255,-99.99,,,0.00,Wunderground v.1.15,2013-03-25 12:26:00,
2013-03-25 05:27:00,-999.9,-99.9,30.08,North,32767,-999.0,-999.0,255,-99.99,,,0.00,Wunderground v.1.15,2013-03-25 12:27:00,
2013-03-25 05:29:00,-999.9,-99.9,30.08,North,32767,-999.0,-999.0,255,-99.99,,,0.00,Wunderground v.1.15,2013-03-25 12:29:00,
2013-03-25 05:32:00,-999.9,-99.9,30.08,North,32767,-999.0,-999.0,255,-99.99,,,0.00,Wunderground v.1.15,2013-03-25 12:32:00,
2013-03-25 05:33:00,-999.9,-99.9,30.08,North,32767,-999.0,-999.0,255,-99.99,,,0.00,Wunderground v.1.15,2013-03-25 12:33:00,
2013-03-25 05:35:00,-999.9,-99.9,30.08,North,32767,-999.0,-999.0,255,-99.99,,,0.00,Wunderground v.1.15,2013-03-25 12:35:00,
2013-03-25 05:37:00,-999.9,-99.9,30.08,North,32767,-999.0,-999.0,255,-99.99,,,0.00,Wunderground v.1.15,2013-03-25 12:37:00,
2013-03-25 05:38:00,-999.9,-99.9,30.08,North,32767,-999.0,-999.0,255,-99.99,,,0.00,Wunderground v.1.15,2013-03-25 12:38:00,
2013-03-25 05:40:00,-999.9,-99.9,30.08,North,32767,-999.0,-999.0,255,-99.99,,,0.00,Wunderground v.1.15,2013-03-25 12:40:00,
2013-03-25 05:43:00,-999.9,-99.9,30.08,North,32767,-999.0,-999.0,255,-99.99,,,0.00,Wunderground v.1.15,2013-03-25 12:43:00,
2013-03-25 05:44:00,-999.9,-99.9,30.08,North,32767,-999.0,-999.0,255,-99.99,,,0.00,Wunderground v.1.15,2013-03-25 12:44:00,
2013-03-25 05:46:00,-999.9,-99.9,30.08,North,32767,-999.0,-999.0,255,-99.99,,,0.00,Wunderground v.1.15,2013-03-25 12:46:00,
2013-03-25 05:48:00,-999.9,-99.9,30.08,North,32767,-999.0,-999.0,255,-99.99,,,0.00,Wunderground v.1.15,2013-03-25 12:48:00,
2013-03-25 05:50:00,-999.9,-99.9,30.08,North,32767,-999.0,-999.0,255,-99.99,,,0.00,Wunderground v.1.15,2013-03-25 12:50:00,
2013-03-25 05:51:00,-999.9,-99.9,30.08,North,32767,-999.0,-999.0,255,-99.99,,,0.00,Wunderground v.1.15,2013-03-25 12:51:00,
2013-03-25 05:52:00,-999.9,-99.9,30.08,North,32767,-999.0,-999.0,255,-99.99,,,0.00,Wunderground v.1.15,2013-03-25 12:52:00,
2013-03-25 05:53:00,-999.9,-99.9,30.08,North,32767,-999.0,-999.0,255,-99.99,,,0.00,Wunderground v.1.15,2013-03-25 12:53:00,
2013-03-25 05:55:00,-999.9,-99.9,30.08,North,32767,-999.0,-999.0,255,-99.99,,,0.00,Wunderground v.1.15,2013-03-25 12:55:00,
2013-03-25 05:57:00,-999.9,-99.9,30.08,North,32767,-999.0,-999.0,255,-99.99,,,0.00,Wunderground v.1.15,2013-03-25 12:57:00,
2013-03-25 05:59:00,-999.9,-99.9,30.08,North,32767,-999.0,-999.0,255,-99.99,,,0.00,Wunderground v.1.15,2013-03-25 12:59:00,
2013-03-25 06:02:00,-999.9,-99.9,30.08,North,32767,-999.0,-999.0,255,-99.99,,,0.00,Wunderground v.1.15,2013-03-25 13:02:00,
2013-03-25 06:03:00,-999.9,-99.9,30.08,North,32767,-999.0,-999.0,255,-99.99,,,0.00,Wunderground v.1.15,2013-03-25 13:03:00,
2013-03-25 06:04:00,-999.9,-99.9,30.08,North,32767,-999.0,-999.0,255,-99.99,,,0.00,Wunderground v.1.15,2013-03-25 13:04:00,
2013-03-25 06:08:00,-999.9,-99.9,30.08,North,32767,-999.0,-999.0,255,-99.99,,,0.00,Wunderground v.1.15,2013-03-25 13:08:00,
2013-03-25 06:10:00,-999.9,-99.9,30.08,North,32767,-999.0,-999.0,255,-99.99,,,0.00,Wunderground v.1.15,2013-03-25 13:10:00,
2013-03-25 06:13:00,-999.9,-99.9,30.08,North,32767,-999.0,-999.0,255,-99.99,,,0.00,Wunderground v.1.15,2013-03-25 13:13:00,
2013-03-25 06:14:00,-999.9,-99.9,30.08,North,32767,-999.0,-999.0,255,-99.99,,,0.00,Wunderground v.1.15,2013-03-25 13:14:00,
2013-03-25 06:15:00,-999.9,-99.9,30.08,North,32767,-999.0,-999.0,255,-99.99,,,0.00,Wunderground v.1.15,2013-03-25 13:15:00,
2013-03-25 06:19:00,-999.9,-99.9,30.08,North,32767,-999.0,-999.0,255,-99.99,,,0.00,Wunderground v.1.15,2013-03-25 13:19:00,
2013-03-25 06:20:00,-999.9,-99.9,30.08,North,32767,-999.0,-999.0,255,-99.99,,,0.00,Wunderground v.1.15,2013-03-25 13:20:00,
2013-03-25 06:22:00,-999.9,-99.9,30.08,North,32767,-999.0,-999.0,255,-99.99,,,0.00,Wunderground v.1.15,2013-03-25 13:22:00,
2013-03-25 06:24:00,-999.9,-99.9,30.08,North,32767,-999.0,-999.0,255,-99.99,,,0.00,Wunderground v.1.15,2013-03-25 13:24:00,
2013-03-25 06:25:00,-999.9,-99.9,30.08,North,32767,-999.0,-999.0,255,-99.99,,,0.00,Wunderground v.1.15,2013-03-25 13:25:00,
2013-03-25 06:26:00,-999.9,-99.9,30.08,North,32767,-999.0,-999.0,255,-99.99,,,0.00,Wunderground v.1.15,2013-03-25 13:26:00,
2013-03-25 06:27:00,-999.9,-99.9,30.08,North,32767,-999.0,-999.0,255,-99.99,,,0.00,Wunderground v.1.15,2013-03-25 13:27:00,
2013-03-25 06:30:00,-999.9,-99.9,30.08,North,32767,-999.0,-999.0,255,-99.99,,,0.00,Wunderground v.1.15,2013-03-25 13:30:00,
2013-03-25 06:32:00,-999.9,-99.9,30.08,North,32767,-999.0,-999.0,255,-99.99,,,0.00,Wunderground v.1.15,2013-03-25 13:32:00,
2013-03-25 06:35:00,-999.9,-99.9,30.08,North,32767,-999.0,-999.0,255,-99.99,,,0.00,Wunderground v.1.15,2013-03-25 13:35:00,
2013-03-25 06:37:00,-999.9,-99.9,30.08,North,32767,-999.0,-999.0,255,-99.99,,,0.00,Wunderground v.1.15,2013-03-25 13:37:00,
2013-03-25 06:41:00,-999.9,-99.9,30.08,North,32767,-999.0,-999.0,255,-99.99,,,0.00,Wunderground v.1.15,2013-03-25 13:41:00,
2013-03-25 06:42:00,-999.9,-99.9,30.08,North,32767,-999.0,-999.0,255,-99.99,,,0.00,Wunderground v.1.15,2013-03-25 13:42:00,
2013-03-25 06:43:00,-999.9,-99.9,30.08,North,32767,-999.0,-999.0,255,-99.99,,,0.00,Wunderground v.1.15,2013-03-25 13:43:00,
2013-03-25 06:47:00,-999.9,-99.9,30.08,North,32767,-999.0,-999.0,255,-99.99,,,0.00,Wunderground v.1.15,2013-03-25 13:47:00,
2013-03-25 06:48:00,-999.9,-99.9,30.08,North,32767,-999.0,-999.0,255,-99.99,,,0.00,Wunderground v.1.15,2013-03-25 13:48:00,
2013-03-25 06:49:00,-999.9,-99.9,30.08,North,32767,-999.0,-999.0,255,-99.99,,,0.00,Wunderground v.1.15,2013-03-25 13:49:00,
2013-03-25 06:52:00,-999.9,-99.9,30.08,North,32767,-999.0,-999.0,255,-99.99,,,0.00,Wunderground v.1.15,2013-03-25 13:52:00,
2013-03-25 06:53:00,-999.9,-99.9,30.08,North,32767,-999.0,-999.0,255,-99.99,,,0.00,Wunderground v.1.15,2013-03-25 13:53:00,
2013-03-25 06:54:00,-999.9,-99.9,30.08,North,32767,-999.0,-999.0,255,-99.99,,,0.00,Wunderground v.1.15,2013-03-25 13:54:00,
2013-03-25 06:58:00,-999.9,-99.9,30.08,North,32767,-999.0,-999.0,255,-99.99,,,0.00,Wunderground v.1.15,2013-03-25 13:58:00,
2013-03-25 07:00:00,-999.9,-99.9,30.08,North,32767,-999.0,-999.0,255,-99.99,,,0.00,Wunderground v.1.15,2013-03-25 14:00:00,
2013-03-25 07:03:00,-999.9,-99.9,30.09,North,32767,-999.0,-999.0,255,-99.99,,,0.00,Wunderground v.1.15,2013-03-25 14:03:00,
2013-03-25 07:04:00,-999.9,-99.9,30.09,North,32767,-999.0,-999.0,255,-99.99,,,0.00,Wunderground v.1.15,2013-03-25 14:04:00,
2013-03-25 07:05:00,-999.9,-99.9,30.09,North,32767,-999.0,-999.0,255,-99.99,,,0.00,Wunderground v.1.15,2013-03-25 14:05:00,
2013-03-25 07:09:00,-999.9,-99.9,30.09,North,32767,-999.0,-999.0,255,-99.99,,,0.00,Wunderground v.1.15,2013-03-25 14:09:00,
2013-03-25 07:10:00,-999.9,-99.9,30.09,North,32767,-999.0,-999.0,255,-99.99,,,0.00,Wunderground v.1.15,2013-03-25 14:10:00,
2013-03-25 07:11:00,-999.9,-99.9,30.09,North,32767,-999.0,-999.0,255,-99.99,,,0.00,Wunderground v.1.15,2013-03-25 14:11:00,
2013-03-25 07:14:00,-999.9,-99.9,30.09,North,32767,-999.0,-999.0,255,-99.99,,,0.00,Wunderground v.1.15,2013-03-25 14:14:00,
2013-03-25 07:15:00,-999.9,-99.9,30.09,North,32767,-999.0,-999.0,255,-99.99,,,0.00,Wunderground v.1.15,2013-03-25 14:15:00,
2013-03-25 07:16:00,-999.9,-99.9,30.09,North,32767,-999.0,-999.0,255,-99.99,,,0.00,Wunderground v.1.15,2013-03-25 14:16:00,
2013-03-25 07:19:00,-999.9,-99.9,30.09,North,32767,-999.0,-999.0,255,-99.99,,,0.00,Wunderground v.1.15,2013-03-25 14:19:00,
2013-03-25 07:20:00,-999.9,-99.9,30.09,North,32767,-999.0,-999.0,255,-99.99,,,0.00,Wunderground v.1.15,2013-03-25 14:20:00,
2013-03-25 07:21:00,-999.9,-99.9,30.09,North,32767,-999.0,-999.0,255,-99.99,,,0.00,Wunderground v.1.15,2013-03-25 14:21:00,
2013-03-25 07:24:00,-999.9,-99.9,30.09,North,32767,-999.0,-999.0,255,-99.99,,,0.00,Wunderground v.1.15,2013-03-25 14:24:00,
2013-03-25 07:26:00,-999.9,-99.9,30.09,North,32767,-999.0,-999.0,255,-99.99,,,0.00,Wunderground v.1.15,2013-03-25 14:26:00,
2013-03-25 07:28:00,-999.9,-99.9,30.09,North,32767,-999.0,-999.0,255,-99.99,,,0.00,Wunderground v.1.15,2013-03-25 14:28:00,
2013-03-25 07:29:00,-999.9,-99.9,30.09,North,32767,-999.0,-999.0,255,-99.99,,,0.00,Wunderground v.1.15,2013-03-25 14:29:00,
2013-03-25 07:32:00,-999.9,-99.9,30.09,North,32767,-999.0,-999.0,255,-99.99,,,0.00,Wunderground v.1.15,2013-03-25 14:32:00,
2013-03-25 07:33:00,-999.9,-99.9,30.09,North,32767,-999.0,-999.0,255,-99.99,,,0.00,Wunderground v.1.15,2013-03-25 14:33:00,
2013-03-25 07:34:00,-999.9,-99.9,30.09,North,32767,-999.0,-999.0,255,-99.99,,,0.00,Wunderground v.1.15,2013-03-25 14:34:00,
2013-03-25 07:35:00,-999.9,-99.9,30.09,North,32767,-999.0,-999.0,255,-99.99,,,0.00,Wunderground v.1.15,2013-03-25 14:35:00,
2013-03-25 07:37:00,-999.9,-99.9,30.09,North,32767,-999.0,-999.0,255,-99.99,,,0.00,Wunderground v.1.15,2013-03-25 14:37:00,
2013-03-25 07:38:00,-999.9,-99.9,30.09,North,32767,-999.0,-999.0,255,-99.99,,,0.00,Wunderground v.1.15,2013-03-25 14:38:00,
2013-03-25 07:39:00,-999.9,-99.9,30.09,North,32767,-999.0,-999.0,255,-99.99,,,0.00,Wunderground v.1.15,2013-03-25 14:39:00,
2013-03-25 07:42:00,-999.9,-99.9,30.09,North,32767,-999.0,-999.0,255,-99.99,,,0.00,Wunderground v.1.15,2013-03-25 14:42:00,
2013-03-25 07:43:00,-999.9,-99.9,30.09,North,32767,-999.0,-999.0,255,-99.99,,,0.00,Wunderground v.1.15,2013-03-25 14:43:00,
2013-03-25 07:44:00,-999.9,-99.9,30.09,North,32767,-999.0,-999.0,255,-99.99,,,0.00,Wunderground v.1.15,2013-03-25 14:44:00,
2013-03-25 07:47:00,-999.9,-99.9,30.09,North,32767,-999.0,-999.0,255,-99.99,,,0.00,Wunderground v.1.15,2013-03-25 14:47:00,
2013-03-25 07:49:00,-999.9,-99.9,30.09,North,32767,-999.0,-999.0,255,-99.99,,,0.00,Wunderground v.1.15,2013-03-25 14:49:00,
2013-03-25 07:53:00,-999.9,-99.9,30.09,North,32767,-999.0,-999.0,255,-99.99,,,0.00,Wunderground v.1.15,2013-03-25 14:53:00,
2013-03-25 07:54:00,-999.9,-99.9,30.09,North,32767,-999.0,-999.0,255,-99.99,,,0.00,Wunderground v.1.15,2013-03-25 14:54:00,
2013-03-25 07:58:00,-999.9,-99.9,30.09,North,32767,-999.0,-999.0,255,-99.99,,,0.00,Wunderground v.1.15,2013-03-25 14:58:00,
2013-03-25 08:00:00,-999.9,-99.9,30.09,North,32767,-999.0,-999.0,255,-99.99,,,0.00,Wunderground v.1.15,2013-03-25 15:00:00,
2013-03-25 08:03:00,-999.9,-99.9,30.09,North,32767,-999.0,-999.0,255,-99.99,,,0.00,Wunderground v.1.15,2013-03-25 15:03:00,
2013-03-25 08:05:00,-999.9,-99.9,30.09,North,32767,-999.0,-999.0,255,-99.99,,,0.00,Wunderground v.1.15,2013-03-25 15:05:00,
2013-03-25 08:08:00,-999.9,-99.9,30.09,North,32767,-999.0,-999.0,255,-99.99,,,0.00,Wunderground v.1.15,2013-03-25 15:08:00,
2013-03-25 08:10:00,-999.9,-99.9,30.09,North,32767,-999.0,-999.0,255,-99.99,,,0.00,Wunderground v.1.15,2013-03-25 15:10:00,
2013-03-25 08:12:00,-999.9,-99.9,30.09,North,32767,-999.0,-999.0,255,-99.99,,,0.00,Wunderground v.1.15,2013-03-25 15:12:00,
2013-03-25 08:14:00,-999.9,-99.9,30.09,North,32767,-999.0,-999.0,255,-99.99,,,0.00,Wunderground v.1.15,2013-03-25 15:14:00,
2013-03-25 08:15:00,-999.9,-99.9,30.09,North,32767,-999.0,-999.0,255,-99.99,,,0.00,Wunderground v.1.15,2013-03-25 15:15:00,
2013-03-25 08:16:00,-999.9,-99.9,30.09,North,32767,-999.0,-999.0,255,-99.99,,,0.00,Wunderground v.1.15,2013-03-25 15:16:00,
2013-03-25 08:17:00,-999.9,-99.9,30.09,North,32767,-999.0,-999.0,255,-99.99,,,0.00,Wunderground v.1.15,2013-03-25 15:17:00,
2013-03-25 08:20:00,-999.9,-99.9,30.09,North,32767,-999.0,-999.0,255,-99.99,,,0.00,Wunderground v.1.15,2013-03-25 15:20:00,
2013-03-25 08:21:00,-999.9,-99.9,30.09,North,32767,-999.0,-999.0,255,-99.99,,,0.00,Wunderground v.1.15,2013-03-25 15:21:00,
2013-03-25 08:22:00,-999.9,-99.9,30.09,North,32767,-999.0,-999.0,255,-99.99,,,0.00,Wunderground v.1.15,2013-03-25 15:22:00,
2013-03-25 08:25:00,-999.9,-99.9,30.09,North,32767,-999.0,-999.0,255,-99.99,,,0.00,Wunderground v.1.15,2013-03-25 15:25:00,
2013-03-25 08:26:00,-999.9,-99.9,30.09,North,32767,-999.0,-999.0,255,-99.99,,,0.00,Wunderground v.1.15,2013-03-25 15:26:00,
2013-03-25 08:27:00,-999.9,-99.9,30.09,North,32767,-999.0,-999.0,255,-99.99,,,0.00,Wunderground v.1.15,2013-03-25 15:27:00,
2013-03-25 08:31:00,-999.9,-99.9,30.09,North,32767,-999.0,-999.0,255,-99.99,,,0.00,Wunderground v.1.15,2013-03-25 15:31:00,
2013-03-25 08:33:00,-999.9,-99.9,30.09,North,32767,-999.0,-999.0,255,-99.99,,,0.00,Wunderground v.1.15,2013-03-25 15:33:00,
2013-03-25 08:34:00,-999.9,-99.9,30.09,North,32767,-999.0,-999.0,255,-99.99,,,0.00,Wunderground v.1.15,2013-03-25 15:34:00,
2013-03-25 08:36:00,-999.9,-99.9,30.09,North,32767,-999.0,-999.0,255,-99.99,,,0.00,Wunderground v.1.15,2013-03-25 15:36:00,
2013-03-25 08:37:00,-999.9,-99.9,30.09,North,32767,-999.0,-999.0,255,-99.99,,,0.00,Wunderground v.1.15,2013-03-25 15:37:00,
2013-03-25 08:39:00,-999.9,-99.9,30.09,North,32767,-999.0,-999.0,255,-99.99,,,0.00,Wunderground v.1.15,2013-03-25 15:39:00,
2013-03-25 08:42:00,-999.9,-99.9,30.09,North,32767,-999.0,-999.0,255,-99.99,,,0.00,Wunderground v.1.15,2013-03-25 15:42:00,
2013-03-25 08:44:00,-999.9,-99.9,30.09,North,32767,-999.0,-999.0,255,-99.99,,,0.00,Wunderground v.1.15,2013-03-25 15:44:00,
2013-03-25 08:48:00,-999.9,-99.9,30.09,North,32767,-999.0,-999.0,255,-99.99,,,0.00,Wunderground v.1.15,2013-03-25 15:48:00,
2013-03-25 08:49:00,-999.9,-99.9,30.09,North,32767,-999.0,-999.0,255,-99.99,,,0.00,Wunderground v.1.15,2013-03-25 15:49:00,
2013-03-25 08:53:00,-999.9,-99.9,30.09,North,32767,-999.0,-999.0,255,-99.99,,,0.00,Wunderground v.1.15,2013-03-25 15:53:00,
2013-03-25 08:55:00,-999.9,-99.9,30.09,North,32767,-999.0,-999.0,255,-99.99,,,0.00,Wunderground v.1.15,2013-03-25 15:55:00,
2013-03-25 08:56:00,-999.9,-99.9,30.09,North,32767,-999.0,-999.0,255,-99.99,,,0.00,Wunderground v.1.15,2013-03-25 15:56:00,
2013-03-25 08:58:00,-999.9,-99.9,30.09,North,32767,-999.0,-999.0,255,-99.99,,,0.00,Wunderground v.1.15,2013-03-25 15:58:00,
2013-03-25 09:00:00,-999.9,-99.9,30.09,North,32767,-999.0,-999.0,255,-99.99,,,0.00,Wunderground v.1.15,2013-03-25 16:00:00,
2013-03-25 09:02:00,-999.9,-99.9,30.08,North,32767,-999.0,-999.0,255,-99.99,,,0.00,Wunderground v.1.15,2013-03-25 16:02:00,
2013-03-25 09:04:00,-999.9,-99.9,30.08,North,32767,-999.0,-999.0,255,-99.99,,,0.00,Wunderground v.1.15,2013-03-25 16:04:00,
2013-03-25 09:05:00,-999.9,-99.9,30.08,North,32767,-999.0,-999.0,255,-99.99,,,0.00,Wunderground v.1.15,2013-03-25 16:05:00,
2013-03-25 09:07:00,-999.9,-99.9,30.08,North,32767,-999.0,-999.0,255,-99.99,,,0.00,Wunderground v.1.15,2013-03-25 16:07:00,
2013-03-25 09:09:00,-999.9,-99.9,30.08,North,32767,-999.0,-999.0,255,-99.99,,,0.00,Wunderground v.1.15,2013-03-25 16:09:00,
2013-03-25 09:11:00,-999.9,-99.9,30.08,North,32767,-999.0,-999.0,255,-99.99,,,0.00,Wunderground v.1.15,2013-03-25 16:11:00,
2013-03-25 09:13:00,-999.9,-99.9,30.08,North,32767,-999.0,-999.0,255,-99.99,,,0.00,Wunderground v.1.15,2013-03-25 16:13:00,
2013-03-25 09:14:00,-999.9,-99.9,30.08,North,32767,-999.0,-999.0,255,-99.99,,,0.00,Wunderground v.1.15,2013-03-25 16:14:00,
2013-03-25 09:16:00,-999.9,-99.9,30.08,North,32767,-999.0,-999.0,255,-99.99,,,0.00,Wunderground v.1.15,2013-03-25 16:16:00,
2013-03-25 09:17:00,-999.9,-99.9,30.08,North,32767,-999.0,-999.0,255,-99.99,,,0.00,Wunderground v.1.15,2013-03-25 16:17:00,
2013-03-25 09:18:00,-999.9,-99.9,30.08,North,32767,-999.0,-999.0,255,-99.99,,,0.00,Wunderground v.1.15,2013-03-25 16:18:00,
2013-03-25 09:19:00,-999.9,-99.9,30.08,North,32767,-999.0,-999.0,255,-99.99,,,0.00,Wunderground v.1.15,2013-03-25 16:19:00,
2013-03-25 09:21:00,-999.9,-99.9,30.08,North,32767,-999.0,-999.0,255,-99.99,,,0.00,Wunderground v.1.15,2013-03-25 16:21:00,
2013-03-25 09:23:00,-999.9,-99.9,30.08,North,32767,-999.0,-999.0,255,-99.99,,,0.00,Wunderground v.1.15,2013-03-25 16:23:00,
2013-03-25 09:24:00,-999.9,-99.9,30.08,North,32767,-999.0,-999.0,255,-99.99,,,0.00,Wunderground v.1.15,2013-03-25 16:24:00,
2013-03-25 09:28:00,-999.9,-99.9,30.08,North,32767,-999.0,-999.0,255,-99.99,,,0.00,Wunderground v.1.15,2013-03-25 16:28:00,
2013-03-25 09:29:00,-999.9,-99.9,30.08,North,32767,-999.0,-999.0,255,-99.99,,,0.00,Wunderground v.1.15,2013-03-25 16:29:00,
2013-03-25 09:30:00,-999.9,-99.9,30.08,North,32767,-999.0,-999.0,255,-99.99,,,0.00,Wunderground v.1.15,2013-03-25 16:30:00,
2013-03-25 09:34:00,-999.9,-99.9,30.08,North,32767,-999.0,-999.0,255,-99.99,,,0.00,Wunderground v.1.15,2013-03-25 16:34:00,
2013-03-25 09:36:00,-999.9,-99.9,30.08,North,32767,-999.0,-999.0,255,-99.99,,,0.00,Wunderground v.1.15,2013-03-25 16:36:00,
2013-03-25 09:39:00,-999.9,-99.9,30.08,North,32767,-999.0,-999.0,255,-99.99,,,0.00,Wunderground v.1.15,2013-03-25 16:39:00,
2013-03-25 09:40:00,-999.9,-99.9,30.08,North,32767,-999.0,-999.0,255,-99.99,,,0.00,Wunderground v.1.15,2013-03-25 16:40:00,
2013-03-25 09:42:00,-999.9,-99.9,30.08,North,32767,-999.0,-999.0,255,-99.99,,,0.00,Wunderground v.1.15,2013-03-25 16:42:00,
2013-03-25 09:45:00,-999.9,-99.9,30.08,North,32767,-999.0,-999.0,255,-99.99,,,0.00,Wunderground v.1.15,2013-03-25 16:45:00,
2013-03-25 09:46:00,-999.9,-99.9,30.08,North,32767,-999.0,-999.0,255,-99.99,,,0.00,Wunderground v.1.15,2013-03-25 16:46:00,
2013-03-25 09:47:00,-999.9,-99.9,30.08,North,32767,-999.0,-999.0,255,-99.99,,,0.00,Wunderground v.1.15,2013-03-25 16:47:00,
2013-03-25 09:50:00,-999.9,-99.9,30.08,North,32767,-999.0,-999.0,255,-99.99,,,0.00,Wunderground v.1.15,2013-03-25 16:50:00,
2013-03-25 09:51:00,-999.9,-99.9,30.08,North,32767,-999.0,-999.0,255,-99.99,,,0.00,Wunderground v.1.15,2013-03-25 16:51:00,
2013-03-25 09:52:00,-999.9,-99.9,30.08,North,32767,-999.0,-999.0,255,-99.99,,,0.00,Wunderground v.1.15,2013-03-25 16:52:00,
2013-03-25 09:55:00,-999.9,-99.9,30.08,North,32767,-999.0,-999.0,255,-99.99,,,0.00,Wunderground v.1.15,2013-03-25 16:55:00,
2013-03-25 09:56:00,-999.9,-99.9,30.08,North,32767,-999.0,-999.0,255,-99.99,,,0.00,Wunderground v.1.15,2013-03-25 16:56:00,
2013-03-25 09:57:00,-999.9,-99.9,30.08,North,32767,-999.0,-999.0,255,-99.99,,,0.00,Wunderground v.1.15,2013-03-25 16:57:00,
2013-03-25 10:00:00,-999.9,-99.9,30.08,North,32767,-999.0,-999.0,255,-99.99,,,0.00,Wunderground v.1.15,2013-03-25 17:00:00,
2013-03-25 10:02:00,-999.9,-99.9,30.08,North,32767,-999.0,-999.0,255,-99.99,,,0.00,Wunderground v.1.15,2013-03-25 17:02:00,
2013-03-25 10:03:00,-999.9,-99.9,30.08,North,32767,-999.0,-999.0,255,-99.99,,,0.00,Wunderground v.1.15,2013-03-25 17:03:00,
2013-03-25 10:05:00,-999.9,-99.9,30.08,North,32767,-999.0,-999.0,255,-99.99,,,0.00,Wunderground v.1.15,2013-03-25 17:05:00,
2013-03-25 10:08:00,-999.9,-99.9,30.08,North,32767,-999.0,-999.0,255,-99.99,,,0.00,Wunderground v.1.15,2013-03-25 17:08:00,
2013-03-25 10:09:00,-999.9,-99.9,30.08,North,32767,-999.0,-999.0,255,-99.99,,,0.00,Wunderground v.1.15,2013-03-25 17:09:00,
2013-03-25 10:11:00,-999.9,-99.9,30.08,North,32767,-999.0,-999.0,255,-99.99,,,0.00,Wunderground v.1.15,2013-03-25 17:11:00,
2013-03-25 10:13:00,-999.9,-99.9,30.08,North,32767,-999.0,-999.0,255,-99.99,,,0.00,Wunderground v.1.15,2013-03-25 17:13:00,
2013-03-25 10:14:00,-999.9,-99.9,30.08,North,32767,-999.0,-999.0,255,-99.99,,,0.00,Wunderground v.1.15,2013-03-25 17:14:00,
2013-03-25 10:17:00,-999.9,-99.9,30.08,North,32767,-999.0,-999.0,255,-99.99,,,0.00,Wunderground v.1.15,2013-03-25 17:17:00,
2013-03-25 10:19:00,-999.9,-99.9,30.08,North,32767,-999.0,-999.0,255,-99.99,,,0.00,Wunderground v.1.15,2013-03-25 17:19:00,
2013-03-25 10:23:00,-999.9,-99.9,30.08,North,32767,-999.0,-999.0,255,-99.99,,,0.00,Wunderground v.1.15,2013-03-25 17:23:00,
2013-03-25 10:24:00,-999.9,-99.9,30.08,North,32767,-999.0,-999.0,255,-99.99,,,0.00,Wunderground v.1.15,2013-03-25 17:24:00,
2013-03-25 10:25:00,-999.9,-99.9,30.08,North,32767,-999.0,-999.0,255,-99.99,,,0.00,Wunderground v.1.15,2013-03-25 17:25:00,
2013-03-25 10:28:00,-999.9,-99.9,30.08,North,32767,-999.0,-999.0,255,-99.99,,,0.00,Wunderground v.1.15,2013-03-25 17:28:00,
2013-03-25 10:30:00,-999.9,-99.9,30.08,North,32767,-999.0,-999.0,255,-99.99,,,0.00,Wunderground v.1.15,2013-03-25 17:30:00,
2013-03-25 10:34:00,-999.9,-99.9,30.08,North,32767,-999.0,-999.0,255,-99.99,,,0.00,Wunderground v.1.15,2013-03-25 17:34:00,
2013-03-25 10:35:00,-999.9,-99.9,30.08,North,32767,-999.0,-999.0,255,-99.99,,,0.00,Wunderground v.1.15,2013-03-25 17:35:00,
2013-03-25 10:38:00,-999.9,-99.9,30.08,North,32767,-999.0,-999.0,255,-99.99,,,0.00,Wunderground v.1.15,2013-03-25 17:38:00,
2013-03-25 10:39:00,-999.9,-99.9,30.08,North,32767,-999.0,-999.0,255,-99.99,,,0.00,Wunderground v.1.15,2013-03-25 17:39:00,
2013-03-25 10:41:00,-999.9,-99.9,30.08,North,32767,-999.0,-999.0,255,-99.99,,,0.00,Wunderground v.1.15,2013-03-25 17:41:00,
2013-03-25 10:42:00,-999.9,-99.9,30.08,North,32767,-999.0,-999.0,255,-99.99,,,0.00,Wunderground v.1.15,2013-03-25 17:42:00,
2013-03-25 10:43:00,-999.9,-99.9,30.08,North,32767,-999.0,-999.0,255,-99.99,,,0.00,Wunderground v.1.15,2013-03-25 17:43:00,
2013-03-25 10:45:00,-999.9,-99.9,30.08,North,32767,-999.0,-999.0,255,-99.99,,,0.00,Wunderground v.1.15,2013-03-25 17:45:00,
2013-03-25 10:47:00,-999.9,-99.9,30.08,North,32767,-999.0,-999.0,255,-99.99,,,0.00,Wunderground v.1.15,2013-03-25 17:47:00,
2013-03-25 10:48:00,-999.9,-99.9,30.08,North,32767,-999.0,-999.0,255,-99.99,,,0.00,Wunderground v.1.15,2013-03-25 17:48:00,
2013-03-25 10:51:00,-999.9,-99.9,30.08,North,32767,-999.0,-999.0,255,-99.99,,,0.00,Wunderground v.1.15,2013-03-25 17:51:00,
2013-03-25 10:53:00,-999.9,-99.9,30.08,North,32767,-999.0,-999.0,255,-99.99,,,0.00,Wunderground v.1.15,2013-03-25 17:53:00,
2013-03-25 10:57:00,-999.9,-99.9,30.08,North,32767,-999.0,-999.0,255,-99.99,,,0.00,Wunderground v.1.15,2013-03-25 17:57:00,
2013-03-25 10:58:00,-999.9,-99.9,30.08,North,32767,-999.0,-999.0,255,-99.99,,,0.00,Wunderground v.1.15,2013-03-25 17:58:00,
2013-03-25 11:03:00,-999.9,-99.9,30.07,North,32767,-999.0,-999.0,255,-99.99,,,0.00,Wunderground v.1.15,2013-03-25 18:03:00,
2013-03-25 11:04:00,-999.9,-99.9,30.07,North,32767,-999.0,-999.0,255,-99.99,,,0.00,Wunderground v.1.15,2013-03-25 18:04:00,
2013-03-25 11:05:00,-999.9,-99.9,30.07,North,32767,-999.0,-999.0,255,-99.99,,,0.00,Wunderground v.1.15,2013-03-25 18:05:00,
2013-03-25 11:08:00,-999.9,-99.9,30.07,North,32767,-999.0,-999.0,255,-99.99,,,0.00,Wunderground v.1.15,2013-03-25 18:08:00,
2013-03-25 11:09:00,-999.9,-99.9,30.07,North,32767,-999.0,-999.0,255,-99.99,,,0.00,Wunderground v.1.15,2013-03-25 18:09:00,
2013-03-25 11:11:00,-999.9,-99.9,30.07,North,32767,-999.0,-999.0,255,-99.99,,,0.00,Wunderground v.1.15,2013-03-25 18:11:00,
2013-03-25 11:13:00,-999.9,-99.9,30.07,North,32767,-999.0,-999.0,255,-99.99,,,0.00,Wunderground v.1.15,2013-03-25 18:13:00,
2013-03-25 11:14:00,-999.9,-99.9,30.07,North,32767,-999.0,-999.0,255,-99.99,,,0.00,Wunderground v.1.15,2013-03-25 18:14:00,
2013-03-25 11:15:00,-999.9,-99.9,30.07,North,32767,-999.0,-999.0,255,-99.99,,,0.00,Wunderground v.1.15,2013-03-25 18:15:00,
2013-03-25 11:18:00,-999.9,-99.9,30.07,North,32767,-999.0,-999.0,255,-99.99,,,0.00,Wunderground v.1.15,2013-03-25 18:18:00,
2013-03-25 11:19:00,-999.9,-99.9,30.07,North,32767,-999.0,-999.0,255,-99.99,,,0.00,Wunderground v.1.15,2013-03-25 18:19:00,
2013-03-25 11:20:00,-999.9,-99.9,30.07,North,32767,-999.0,-999.0,255,-99.99,,,0.00,Wunderground v.1.15,2013-03-25 18:20:00,
2013-03-25 11:22:00,-999.9,-99.9,30.07,North,32767,-999.0,-999.0,255,-99.99,,,0.00,Wunderground v.1.15,2013-03-25 18:22:00,
2013-03-25 11:25:00,-999.9,-99.9,30.07,North,32767,-999.0,-999.0,255,-99.99,,,0.00,Wunderground v.1.15,2013-03-25 18:25:00,
2013-03-25 11:27:00,-999.9,-99.9,30.07,North,32767,-999.0,-999.0,255,-99.99,,,0.00,Wunderground v.1.15,2013-03-25 18:27:00,
2013-03-25 11:30:00,-999.9,-99.9,30.07,North,32767,-999.0,-999.0,255,-99.99,,,0.00,Wunderground v.1.15,2013-03-25 18:30:00,
2013-03-25 11:33:00,-999.9,-99.9,30.07,North,32767,-999.0,-999.0,255,-99.99,,,0.00,Wunderground v.1.15,2013-03-25 18:33:00,
2013-03-25 11:35:00,-999.9,-99.9,30.07,North,32767,-999.0,-999.0,255,-99.99,,,0.00,Wunderground v.1.15,2013-03-25 18:35:00,
2013-03-25 11:36:00,-999.9,-99.9,30.07,North,32767,-999.0,-999.0,255,-99.99,,,0.00,Wunderground v.1.15,2013-03-25 18:36:00,
2013-03-25 11:39:00,-999.9,-99.9,30.07,North,32767,-999.0,-999.0,255,-99.99,,,0.00,Wunderground v.1.15,2013-03-25 18:39:00,
2013-03-25 11:40:00,-999.9,-99.9,30.07,North,32767,-999.0,-999.0,255,-99.99,,,0.00,Wunderground v.1.15,2013-03-25 18:40:00,
2013-03-25 11:41:00,-999.9,-99.9,30.07,North,32767,-999.0,-999.0,255,-99.99,,,0.00,Wunderground v.1.15,2013-03-25 18:41:00,
2013-03-25 11:43:00,-999.9,-99.9,30.07,North,32767,-999.0,-999.0,255,-99.99,,,0.00,Wunderground v.1.15,2013-03-25 18:43:00,
2013-03-25 11:44:00,-999.9,-99.9,30.07,North,32767,-999.0,-999.0,255,-99.99,,,0.00,Wunderground v.1.15,2013-03-25 18:44:00,
2013-03-25 11:46:00,-999.9,-99.9,30.06,North,32767,-999.0,-999.0,255,-99.99,,,0.00,Wunderground v.1.15,2013-03-25 18:46:00,
2013-03-25 11:47:00,-999.9,-99.9,30.06,North,32767,-999.0,-999.0,255,-99.99,,,0.00,Wunderground v.1.15,2013-03-25 18:47:00,
2013-03-25 11:49:00,-999.9,-99.9,30.06,North,32767,-999.0,-999.0,255,-99.99,,,0.00,Wunderground v.1.15,2013-03-25 18:49:00,
2013-03-25 11:51:00,-999.9,-99.9,30.06,North,32767,-999.0,-999.0,255,-99.99,,,0.00,Wunderground v.1.15,2013-03-25 18:51:00,
2013-03-25 11:53:00,-999.9,-99.9,30.06,North,32767,-999.0,-999.0,255,-99.99,,,0.00,Wunderground v.1.15,2013-03-25 18:53:00,
2013-03-25 11:54:00,-999.9,-99.9,30.06,North,32767,-999.0,-999.0,255,-99.99,,,0.00,Wunderground v.1.15,2013-03-25 18:54:00,
2013-03-25 11:55:00,-999.9,-99.9,30.06,North,32767,-999.0,-999.0,255,-99.99,,,0.00,Wunderground v.1.15,2013-03-25 18:55:00,
2013-03-25 11:57:00,-999.9,-99.9,30.06,North,32767,-999.0,-999.0,255,-99.99,,,0.00,Wunderground v.1.15,2013-03-25 18:57:00,
2013-03-25 11:58:00,-999.9,-99.9,30.06,North,32767,-999.0,-999.0,255,-99.99,,,0.00,Wunderground v.1.15,2013-03-25 18:58:00,
2013-03-25 12:02:00,-999.9,-99.9,30.05,North,32767,-999.0,-999.0,255,-99.99,,,0.00,Wunderground v.1.15,2013-03-25 19:02:00,
2013-03-25 12:04:00,-999.9,-99.9,30.05,North,32767,-999.0,-999.0,255,-99.99,,,0.00,Wunderground v.1.15,2013-03-25 19:04:00,
2013-03-25 12:05:00,-999.9,-99.9,30.05,North,32767,-999.0,-999.0,255,-99.99,,,0.00,Wunderground v.1.15,2013-03-25 19:05:00,
2013-03-25 12:07:00,54.4,-99.9,30.05,NNW,338,0.0,0.0,255,0.00,,,0.00,Wunderground v.1.15,2013-03-25 19:07:00,
2013-03-25 12:09:00,54.6,28.8,30.05,NNE,22,1.0,1.0,37,0.00,,,0.00,Wunderground v.1.15,2013-03-25 19:09:00,
2013-03-25 12:12:00,54.6,31.9,30.05,NE,34,3.0,4.0,42,0.00,,,0.00,Wunderground v.1.15,2013-03-25 19:12:00,
2013-03-25 12:15:00,54.7,29.6,30.05,ENE,64,0.0,4.0,38,0.00,,,0.00,Wunderground v.1.15,2013-03-25 19:15:00,
2013-03-25 12:17:00,54.7,27.6,30.04,SE,128,1.0,4.0,35,0.00,,,0.00,Wunderground v.1.15,2013-03-25 19:17:00,
2013-03-25 12:19:00,54.9,29.7,30.04,NNE,23,2.0,4.0,38,0.00,,,0.00,Wunderground v.1.15,2013-03-25 19:19:00,
2013-03-25 12:20:00,55.0,29.8,30.04,NE,47,4.0,4.0,38,0.00,,,0.00,Wunderground v.1.15,2013-03-25 19:20:00,
2013-03-25 12:24:00,55.0,27.1,30.04,NNE,26,1.0,6.0,34,0.00,,,0.00,Wunderground v.1.15,2013-03-25 19:24:00,
2013-03-25 12:25:00,55.0,28.5,30.04,NNE,26,0.0,6.0,36,0.00,,,0.00,Wunderground v.1.15,2013-03-25 19:25:00,
2013-03-25 12:27:00,55.2,27.3,30.04,NNE,26,0.0,6.0,34,0.00,,,0.00,Wunderground v.1.15,2013-03-25 19:27:00,
2013-03-25 12:29:00,55.2,29.4,30.04,NNE,26,0.0,6.0,37,0.00,,,0.00,Wunderground v.1.15,2013-03-25 19:29:00,
2013-03-25 12:32:00,55.5,29.6,30.03,NNE,15,0.0,1.0,37,0.00,,,0.00,Wunderground v.1.15,2013-03-25 19:32:00,
2013-03-25 12:33:00,55.5,29.0,30.03,NNE,15,0.0,1.0,36,0.00,,,0.00,Wunderground v.1.15,2013-03-25 19:33:00,
2013-03-25 12:35:00,55.6,27.6,30.03,NNE,15,0.0,1.0,34,0.00,,,0.00,Wunderground v.1.15,2013-03-25 19:35:00,
2013-03-25 12:40:00,55.8,29.9,30.03,SE,144,3.0,3.0,37,0.00,,,0.00,Wunderground v.1.15,2013-03-25 19:40:00,
2013-03-25 12:44:00,56.1,28.8,30.03,ESE,120,1.0,4.0,35,0.00,,,0.00,Wunderground v.1.15,2013-03-25 19:44:00,
2013-03-25 12:45:00,56.1,28.1,30.03,ESE,120,0.0,4.0,34,0.00,,,0.00,Wunderground v.1.15,2013-03-25 19:45:00,
2013-03-25 12:46:00,56.2,26.7,30.03,ESE,120,0.0,4.0,32,0.00,,,0.00,Wunderground v.1.15,2013-03-25 19:46:00,
2013-03-25 12:48:00,56.2,27.4,30.03,East,93,0.0,4.0,33,0.00,,,0.00,Wunderground v.1.15,2013-03-25 19:48:00,
2013-03-25 12:49:00,56.4,27.6,30.03,East,93,0.0,4.0,33,0.00,,,0.00,Wunderground v.1.15,2013-03-25 19:49:00,
2013-03-25 12:50:00,56.5,29.1,30.03,NE,37,2.0,2.0,35,0.00,,,0.00,Wunderground v.1.15,2013-03-25 19:50:00,
2013-03-25 12:51:00,56.5,29.1,30.03,NE,56,0.0,2.0,35,0.00,,,0.00,Wunderground v.1.15,2013-03-25 19:51:00,
2013-03-25 12:54:00,56.8,30.1,30.03,NE,40,2.0,2.0,36,0.00,,,0.00,Wunderground v.1.15,2013-03-25 19:54:00,
2013-03-25 12:55:00,56.8,29.4,30.03,NE,54,0.0,2.0,35,0.00,,,0.00,Wunderground v.1.15,2013-03-25 19:55:00,
2013-03-25 12:56:00,57.0,31.0,30.03,NNE,30,0.0,2.0,37,0.00,,,0.00,Wunderground v.1.15,2013-03-25 19:56:00,
2013-03-25 12:59:00,57.2,28.3,30.03,ENE,61,0.0,2.0,33,0.00,,,0.00,Wunderground v.1.15,2013-03-25 19:59:00,
2013-03-25 13:01:00,57.2,29.1,30.02,NNE,31,3.0,3.0,34,0.00,,,0.00,Wunderground v.1.15,2013-03-25 20:01:00,
2013-03-25 13:05:00,57.4,29.9,30.02,NE,40,3.0,6.0,35,0.00,,,0.00,Wunderground v.1.15,2013-03-25 20:05:00,
2013-03-25 13:07:00,57.4,30.6,30.02,NNE,13,1.0,6.0,36,0.00,,,0.00,Wunderground v.1.15,2013-03-25 20:07:00,
2013-03-25 13:08:00,57.4,30.6,30.02,NNE,13,0.0,6.0,36,0.00,,,0.00,Wunderground v.1.15,2013-03-25 20:08:00,
2013-03-25 13:10:00,57.4,29.9,30.02,NNE,13,0.0,2.0,35,0.00,,,0.00,Wunderground v.1.15,2013-03-25 20:10:00,
2013-03-25 13:14:00,57.5,30.7,30.02,ENE,76,0.0,2.0,36,0.00,,,0.00,Wunderground v.1.15,2013-03-25 20:14:00,
2013-03-25 13:15:00,57.5,29.3,30.02,ENE,76,0.0,2.0,34,0.00,,,0.00,Wunderground v.1.15,2013-03-25 20:15:00,
2013-03-25 13:18:00,57.7,30.2,30.02,NE,44,0.0,2.0,35,0.00,,,0.00,Wunderground v.1.15,2013-03-25 20:18:00,
2013-03-25 13:19:00,57.7,30.2,30.02,ENE,75,0.0,2.0,35,0.00,,,0.00,Wunderground v.1.15,2013-03-25 20:19:00,
2013-03-25 13:20:00,57.7,31.6,30.02,ENE,75,0.0,0.0,37,0.00,,,0.00,Wunderground v.1.15,2013-03-25 20:20:00,
2013-03-25 13:23:00,57.7,25.6,30.02,NW,317,1.0,1.0,29,0.00,,,0.00,Wunderground v.1.15,2013-03-25 20:23:00,
2013-03-25 13:24:00,57.8,27.3,30.02,NW,304,0.0,1.0,31,0.00,,,0.00,Wunderground v.1.15,2013-03-25 20:24:00,
2013-03-25 13:25:00,57.8,27.3,30.02,WNW,299,0.0,1.0,31,0.00,,,0.00,Wunderground v.1.15,2013-03-25 20:25:00,
2013-03-25 13:27:00,58.0,29.8,30.02,North,9,0.0,1.0,34,0.00,,,0.00,Wunderground v.1.15,2013-03-25 20:27:00,
2013-03-25 13:28:00,58.0,29.8,30.02,NNE,31,2.0,2.0,34,0.00,,,0.00,Wunderground v.1.15,2013-03-25 20:28:00,
2013-03-25 13:30:00,58.1,30.6,30.02,SE,139,0.0,1.0,35,0.00,,,0.00,Wunderground v.1.15,2013-03-25 20:30:00,
2013-03-25 13:32:00,58.1,29.8,30.01,SE,144,0.0,1.0,34,0.00,,,0.00,Wunderground v.1.15,2013-03-25 20:32:00,
2013-03-25 13:34:00,58.1,26.8,30.01,ENE,71,0.0,1.0,30,0.00,,,0.00,Wunderground v.1.15,2013-03-25 20:34:00,
2013-03-25 13:37:00,58.1,28.4,30.01,NNE,13,0.0,1.0,32,0.00,,,0.00,Wunderground v.1.15,2013-03-25 20:37:00,
2013-03-25 13:38:00,58.3,28.5,30.01,NNE,13,0.0,1.0,32,0.00,,,0.00,Wunderground v.1.15,2013-03-25 20:38:00,
2013-03-25 13:42:00,58.3,27.8,30.01,NE,41,6.0,6.0,31,0.00,,,0.00,Wunderground v.1.15,2013-03-25 20:42:00,
2013-03-25 13:43:00,58.3,30.0,30.01,NNE,30,5.0,6.0,34,0.00,,,0.00,Wunderground v.1.15,2013-03-25 20:43:00,
2013-03-25 13:44:00,58.3,27.8,30.01,ENE,62,2.0,6.0,31,0.00,,,0.00,Wunderground v.1.15,2013-03-25 20:44:00,
2013-03-25 13:48:00,58.3,26.1,30.01,North,355,0.0,6.0,29,0.00,,,0.00,Wunderground v.1.15,2013-03-25 20:48:00,
2013-03-25 13:50:00,58.3,27.8,30.01,North,355,0.0,2.0,31,0.00,,,0.00,Wunderground v.1.15,2013-03-25 20:50:00,
2013-03-25 13:51:00,58.3,26.1,30.01,North,355,0.0,2.0,29,0.00,,,0.00,Wunderground v.1.15,2013-03-25 20:51:00,
2013-03-25 13:53:00,58.3,29.3,30.01,NNE,32,1.0,2.0,33,0.00,,,0.00,Wunderground v.1.15,2013-03-25 20:53:00,
2013-03-25 13:55:00,58.3,31.4,30.01,West,260,0.0,2.0,36,0.00,,,0.00,Wunderground v.1.15,2013-03-25 20:55:00,
2013-03-25 13:57:00,58.5,30.2,30.01,West,260,1.0,2.0,34,0.00,,,0.00,Wunderground v.1.15,2013-03-25 20:57:00,
2013-03-25 13:59:00,58.6,27.2,30.01,NNE,15,4.0,4.0,30,0.00,,,0.00,Wunderground v.1.15,2013-03-25 20:59:00,
2013-03-25 14:02:00,58.8,30.5,30.00,North,5,0.0,2.0,34,0.00,,,0.00,Wunderground v.1.15,2013-03-25 21:02:00,
2013-03-25 14:03:00,58.8,30.5,30.00,North,5,0.0,2.0,34,0.00,,,0.00,Wunderground v.1.15,2013-03-25 21:03:00,
2013-03-25 14:04:00,58.8,30.5,30.00,North,5,0.0,2.0,34,0.00,,,0.00,Wunderground v.1.15,2013-03-25 21:04:00,
2013-03-25 14:07:00,58.8,30.5,30.00,West,263,1.0,2.0,34,0.00,,,0.00,Wunderground v.1.15,2013-03-25 21:07:00,
2013-03-25 14:08:00,58.6,25.6,30.00,West,263,0.0,2.0,28,0.00,,,0.00,Wunderground v.1.15,2013-03-25 21:08:00,
2013-03-25 14:09:00,58.6,26.4,30.00,West,263,0.0,2.0,29,0.00,,,0.00,Wunderground v.1.15,2013-03-25 21:09:00,
2013-03-25 14:13:00,58.6,29.6,30.00,NNW,346,0.0,1.0,33,0.00,,,0.00,Wunderground v.1.15,2013-03-25 21:13:00,
2013-03-25 14:14:00,58.6,31.0,30.00,ENE,70,1.0,1.0,35,0.00,,,0.00,Wunderground v.1.15,2013-03-25 21:14:00,
2013-03-25 14:15:00,58.6,28.0,30.00,ENE,70,1.0,1.0,31,0.00,,,0.00,Wunderground v.1.15,2013-03-25 21:15:00,
2013-03-25 14:19:00,59.1,28.5,29.99,SE,144,1.0,1.0,31,0.00,,,0.00,Wunderground v.1.15,2013-03-25 21:19:00,
2013-03-25 14:20:00,59.1,28.5,29.99,East,97,1.0,1.0,31,0.00,,,0.00,Wunderground v.1.15,2013-03-25 21:20:00,
2013-03-25 14:25:00,59.5,29.6,29.99,SSE,166,0.0,2.0,32,0.00,,,0.00,Wunderground v.1.15,2013-03-25 21:25:00,
2013-03-25 14:30:00,59.7,31.3,29.99,NNE,30,4.0,6.0,34,0.00,,,0.00,Wunderground v.1.15,2013-03-25 21:30:00,
2013-03-25 14:31:00,59.7,30.5,29.98,NE,43,5.0,6.0,33,0.00,,,0.00,Wunderground v.1.15,2013-03-25 21:31:00,
2013-03-25 14:35:00,59.5,27.2,29.98,SE,126,0.0,6.0,29,0.00,,,0.00,Wunderground v.1.15,2013-03-25 21:35:00,
2013-03-25 14:36:00,59.4,27.1,29.98,SE,126,0.0,6.0,29,0.00,,,0.00,Wunderground v.1.15,2013-03-25 21:36:00,
2013-03-25 14:37:00,59.4,27.1,29.98,SE,126,0.0,6.0,29,0.00,,,0.00,Wunderground v.1.15,2013-03-25 21:37:00,
2013-03-25 14:38:00,59.4,27.1,29.98,SE,126,0.0,6.0,29,0.00,,,0.00,Wunderground v.1.15,2013-03-25 21:38:00,
2013-03-25 14:40:00,59.4,27.9,29.98,ESE,105,0.0,1.0,30,0.00,,,0.00,Wunderground v.1.15,2013-03-25 21:40:00,
2013-03-25 14:41:00,59.4,27.9,29.98,East,99,0.0,2.0,30,0.00,,,0.00,Wunderground v.1.15,2013-03-25 21:41:00,
2013-03-25 14:43:00,59.4,29.5,29.98,North,9,1.0,3.0,32,0.00,,,0.00,Wunderground v.1.15,2013-03-25 21:43:00,
2013-03-25 14:46:00,59.4,29.5,29.98,North,9,0.0,3.0,32,0.00,,,0.00,Wunderground v.1.15,2013-03-25 21:46:00,
2013-03-25 14:48:00,59.4,29.5,29.98,ENE,70,0.0,3.0,32,0.00,,,0.00,Wunderground v.1.15,2013-03-25 21:48:00,
2013-03-25 14:49:00,59.4,29.5,29.98,ENE,70,0.0,3.0,32,0.00,,,0.00,Wunderground v.1.15,2013-03-25 21:49:00,
2013-03-25 14:51:00,59.4,29.5,29.98,NE,55,1.0,5.0,32,0.00,,,0.00,Wunderground v.1.15,2013-03-25 21:51:00,
2013-03-25 14:52:00,59.4,29.5,29.98,NE,55,0.0,5.0,32,0.00,,,0.00,Wunderground v.1.15,2013-03-25 21:52:00,
2013-03-25 14:53:00,59.4,30.3,29.98,South,170,0.0,5.0,33,0.00,,,0.00,Wunderground v.1.15,2013-03-25 21:53:00,
2013-03-25 14:54:00,59.4,30.3,29.98,South,170,0.0,5.0,33,0.00,,,0.00,Wunderground v.1.15,2013-03-25 21:54:00,
2013-03-25 14:57:00,59.4,29.5,29.98,NE,34,1.0,5.0,32,0.00,,,0.00,Wunderground v.1.15,2013-03-25 21:57:00,
2013-03-25 14:58:00,59.4,29.5,29.98,NE,34,0.0,5.0,32,0.00,,,0.00,Wunderground v.1.15,2013-03-25 21:58:00,
2013-03-25 14:59:00,59.4,29.5,29.98,SE,125,0.0,1.0,32,0.00,,,0.00,Wunderground v.1.15,2013-03-25 21:59:00,
2013-03-25 15:02:00,59.4,27.1,29.98,SE,125,0.0,1.0,29,0.00,,,0.00,Wunderground v.1.15,2013-03-25 22:02:00,
2013-03-25 15:03:00,59.4,27.9,29.98,SE,125,0.0,1.0,30,0.00,,,0.00,Wunderground v.1.15,2013-03-25 22:03:00,
2013-03-25 15:05:00,59.4,27.9,29.98,SE,126,0.0,1.0,30,0.00,,,0.00,Wunderground v.1.15,2013-03-25 22:05:00,
2013-03-25 15:08:00,59.4,27.9,29.98,NNW,342,0.0,1.0,30,0.00,,,0.00,Wunderground v.1.15,2013-03-25 22:08:00,
2013-03-25 15:10:00,59.4,27.1,29.98,NW,313,0.0,0.0,29,0.00,,,0.00,Wunderground v.1.15,2013-03-25 22:10:00,
2013-03-25 15:14:00,59.4,29.5,29.98,NW,313,0.0,0.0,32,0.00,,,0.00,Wunderground v.1.15,2013-03-25 22:14:00,
2013-03-25 15:15:00,59.4,28.7,29.98,NW,313,0.0,0.0,31,0.00,,,0.00,Wunderground v.1.15,2013-03-25 22:15:00,
2013-03-25 15:19:00,59.4,28.7,29.96,WSW,239,0.0,0.0,31,0.00,,,0.00,Wunderground v.1.15,2013-03-25 22:19:00,
2013-03-25 15:20:00,59.4,27.9,29.96,SSE,161,0.0,0.0,30,0.00,,,0.00,Wunderground v.1.15,2013-03-25 22:20:00,
2013-03-25 15:21:00,59.5,27.2,29.96,SSE,163,0.0,0.0,29,0.00,,,0.00,Wunderground v.1.15,2013-03-25 22:21:00,
2013-03-25 15:23:00,59.5,28.8,29.96,SSE,156,0.0,0.0,31,0.00,,,0.00,Wunderground v.1.15,2013-03-25 22:23:00,
2013-03-25 15:25:00,59.5,29.6,29.96,SSE,160,0.0,0.0,32,0.00,,,0.00,Wunderground v.1.15,2013-03-25 22:25:00,
2013-03-25 15:28:00,59.5,27.2,29.96,SSE,160,0.0,0.0,29,0.00,,,0.00,Wunderground v.1.15,2013-03-25 22:28:00,
2013-03-25 15:31:00,59.5,26.3,29.95,SW,236,0.0,0.0,28,0.00,,,0.00,Wunderground v.1.15,2013-03-25 22:31:00,
2013-03-25 15:32:00,59.5,27.2,29.95,SW,236,0.0,0.0,29,0.00,,,0.00,Wunderground v.1.15,2013-03-25 22:32:00,
2013-03-25 15:33:00,59.5,26.3,29.95,SW,236,0.0,0.0,28,0.00,,,0.00,Wunderground v.1.15,2013-03-25 22:33:00,
2013-03-25 15:34:00,59.5,28.0,29.95,SSE,157,0.0,0.0,30,0.00,,,0.00,Wunderground v.1.15,2013-03-25 22:34:00,
2013-03-25 15:36:00,59.5,31.1,29.95,SSW,211,0.0,0.0,34,0.00,,,0.00,Wunderground v.1.15,2013-03-25 22:36:00,
2013-03-25 15:38:00,59.5,31.8,29.95,SSW,201,0.0,0.0,35,0.00,,,0.00,Wunderground v.1.15,2013-03-25 22:38:00,
2013-03-25 15:39:00,59.5,31.1,29.95,SW,229,0.0,0.0,34,0.00,,,0.00,Wunderground v.1.15,2013-03-25 22:39:00,
2013-03-25 15:43:00,59.5,30.3,29.95,SW,222,0.0,0.0,33,0.00,,,0.00,Wunderground v.1.15,2013-03-25 22:43:00,
2013-03-25 15:44:00,59.4,30.3,29.95,SW,222,0.0,0.0,33,0.00,,,0.00,Wunderground v.1.15,2013-03-25 22:44:00,
2013-03-25 15:46:00,59.4,29.5,29.95,WNW,284,0.0,0.0,32,0.00,,,0.00,Wunderground v.1.15,2013-03-25 22:46:00,
2013-03-25 15:49:00,59.2,30.1,29.95,West,272,0.0,0.0,33,0.00,,,0.00,Wunderground v.1.15,2013-03-25 22:49:00,
2013-03-25 15:52:00,59.1,30.7,29.95,SSE,150,0.0,0.0,34,0.00,,,0.00,Wunderground v.1.15,2013-03-25 22:52:00,
2013-03-25 15:54:00,59.1,31.4,29.95,South,183,0.0,0.0,35,0.00,,,0.00,Wunderground v.1.15,2013-03-25 22:54:00,
2013-03-25 15:57:00,58.9,29.8,29.95,SW,235,0.0,0.0,33,0.00,,,0.00,Wunderground v.1.15,2013-03-25 22:57:00,
2013-03-25 15:59:00,58.9,29.8,29.95,NE,45,0.0,0.0,33,0.00,,,0.00,Wunderground v.1.15,2013-03-25 22:59:00,
2013-03-25 16:00:00,58.9,29.8,29.95,North,11,0.0,0.0,33,0.00,,,0.00,Wunderground v.1.15,2013-03-25 23:00:00,
2013-03-25 16:03:00,58.8,30.5,29.95,West,263,0.0,0.0,34,0.00,,,0.00,Wunderground v.1.15,2013-03-25 23:03:00,
2013-03-25 16:05:00,58.8,31.2,29.95,West,263,0.0,0.0,35,0.00,,,0.00,Wunderground v.1.15,2013-03-25 23:05:00,
2013-03-25 16:08:00,58.8,29.7,29.95,SE,138,0.0,0.0,33,0.00,,,0.00,Wunderground v.1.15,2013-03-25 23:08:00,
2013-03-25 16:10:00,58.8,30.5,29.95,SE,138,0.0,0.0,34,0.00,,,0.00,Wunderground v.1.15,2013-03-25 23:10:00,
2013-03-25 16:14:00,58.8,29.7,29.95,SE,130,0.0,0.0,33,0.00,,,0.00,Wunderground v.1.15,2013-03-25 23:14:00,
2013-03-25 16:15:00,58.8,29.7,29.95,SE,130,0.0,0.0,33,0.00,,,0.00,Wunderground v.1.15,2013-03-25 23:15:00,
2013-03-25 16:16:00,58.8,29.7,29.95,SE,130,0.0,0.0,33,0.00,,,0.00,Wunderground v.1.15,2013-03-25 23:16:00,
2013-03-25 16:19:00,58.8,31.2,29.95,SSE,151,0.0,0.0,35,0.00,,,0.00,Wunderground v.1.15,2013-03-25 23:19:00,
2013-03-25 16:22:00,58.8,29.7,29.95,West,265,0.0,0.0,33,0.00,,,0.00,Wunderground v.1.15,2013-03-25 23:22:00,
2013-03-25 16:23:00,58.8,29.7,29.95,West,270,0.0,0.0,33,0.00,,,0.00,Wunderground v.1.15,2013-03-25 23:23:00,
2013-03-25 16:24:00,58.8,29.7,29.95,West,270,0.0,0.0,33,0.00,,,0.00,Wunderground v.1.15,2013-03-25 23:24:00,
2013-03-25 16:25:00,58.8,29.7,29.95,West,271,0.0,0.0,33,0.00,,,0.00,Wunderground v.1.15,2013-03-25 23:25:00,
2013-03-25 16:27:00,58.8,29.7,29.95,WNW,288,0.0,0.0,33,0.00,,,0.00,Wunderground v.1.15,2013-03-25 23:27:00,
2013-03-25 16:28:00,58.6,30.3,29.95,WNW,292,0.0,0.0,34,0.00,,,0.00,Wunderground v.1.15,2013-03-25 23:28:00,
2013-03-25 16:30:00,58.6,30.3,29.95,WNW,292,0.0,0.0,34,0.00,,,0.00,Wunderground v.1.15,2013-03-25 23:30:00,
2013-03-25 16:32:00,58.6,30.3,29.95,West,276,0.0,0.0,34,0.00,,,0.00,Wunderground v.1.15,2013-03-25 23:32:00,
2013-03-25 16:33:00,58.6,28.8,29.95,West,276,0.0,0.0,32,0.00,,,0.00,Wunderground v.1.15,2013-03-25 23:33:00,
2013-03-25 16:35:00,58.6,29.6,29.95,West,276,0.0,0.0,33,0.00,,,0.00,Wunderground v.1.15,2013-03-25 23:35:00,
2013-03-25 16:37:00,58.6,29.6,29.95,West,271,0.0,0.0,33,0.00,,,0.00,Wunderground v.1.15,2013-03-25 23:37:00,
2013-03-25 16:39:00,58.6,29.6,29.95,West,279,0.0,0.0,33,0.00,,,0.00,Wunderground v.1.15,2013-03-25 23:39:00,
2013-03-25 16:41:00,58.6,29.6,29.95,WSW,247,0.0,0.0,33,0.00,,,0.00,Wunderground v.1.15,2013-03-25 23:41:00,
2013-03-25 16:44:00,58.6,30.3,29.95,SE,142,0.0,0.0,34,0.00,,,0.00,Wunderground v.1.15,2013-03-25 23:44:00,
2013-03-25 16:45:00,58.6,30.3,29.95,SE,135,0.0,0.0,34,0.00,,,0.00,Wunderground v.1.15,2013-03-25 23:45:00,
2013-03-25 16:46:00,58.6,30.3,29.94,SE,129,0.0,0.0,34,0.00,,,0.00,Wunderground v.1.15,2013-03-25 23:46:00,
2013-03-25 16:47:00,58.6,31.0,29.94,SE,131,0.0,0.0,35,0.00,,,0.00,Wunderground v.1.15,2013-03-25 23:47:00,
2013-03-25 16:50:00,58.6,31.0,29.94,SE,131,0.0,0.0,35,0.00,,,0.00,Wunderground v.1.15,2013-03-25 23:50:00,
2013-03-25 16:51:00,58.6,31.0,29.94,SE,131,0.0,0.0,35,0.00,,,0.00,Wunderground v.1.15,2013-03-25 23:51:00,
2013-03-25 16:52:00,58.5,30.9,29.94,SW,214,0.0,0.0,35,0.00,,,0.00,Wunderground v.1.15,2013-03-25 23:52:00,
2013-03-25 16:53:00,58.5,30.2,29.94,SW,215,0.0,0.0,34,0.00,,,0.00,Wunderground v.1.15,2013-03-25 23:53:00,
2013-03-25 16:55:00,58.5,29.5,29.94,SW,215,0.0,0.0,33,0.00,,,0.00,Wunderground v.1.15,2013-03-25 23:55:00,
2013-03-25 16:58:00,58.5,30.9,29.94,SE,136,0.0,0.0,35,0.00,,,0.00,Wunderground v.1.15,2013-03-25 23:58:00,
2013-03-25 17:00:00,58.5,30.2,29.94,SE,136,0.0,0.0,34,0.00,,,0.00,Wunderground v.1.15,2013-03-26 00:00:00,
2013-03-25 17:01:00,58.5,30.2,29.94,SSW,202,0.0,0.0,34,0.00,,,0.00,Wunderground v.1.15,2013-03-26 00:01:00,
2013-03-25 17:03:00,58.5,30.9,29.94,SSW,202,0.0,0.0,35,0.00,,,0.00,Wunderground v.1.15,2013-03-26 00:03:00,
2013-03-25 17:05:00,58.3,30.0,29.94,West,260,0.0,0.0,34,0.00,,,0.00,Wunderground v.1.15,2013-03-26 00:05:00,
2013-03-25 17:07:00,58.3,29.3,29.94,West,269,0.0,0.0,33,0.00,,,0.00,Wunderground v.1.15,2013-03-26 00:07:00,
2013-03-25 17:08:00,58.3,29.3,29.94,West,269,0.0,0.0,33,0.00,,,0.00,Wunderground v.1.15,2013-03-26 00:08:00,
2013-03-25 17:10:00,58.3,30.7,29.94,West,269,0.0,0.0,35,0.00,,,0.00,Wunderground v.1.15,2013-03-26 00:10:00,
2013-03-25 17:12:00,58.1,30.6,29.94,West,269,0.0,0.0,35,0.00,,,0.00,Wunderground v.1.15,2013-03-26 00:12:00,
2013-03-25 17:14:00,58.1,31.3,29.94,West,269,0.0,0.0,36,0.00,,,0.00,Wunderground v.1.15,2013-03-26 00:14:00,
2013-03-25 17:16:00,58.1,31.9,29.93,West,269,0.0,0.0,37,0.00,,,0.00,Wunderground v.1.15,2013-03-26 00:16:00,
2013-03-25 17:17:00,58.0,31.2,29.93,West,269,0.0,0.0,36,0.00,,,0.00,Wunderground v.1.15,2013-03-26 00:17:00,
2013-03-25 17:18:00,58.0,31.8,29.93,West,269,0.0,0.0,37,0.00,,,0.00,Wunderground v.1.15,2013-03-26 00:18:00,
2013-03-25 17:19:00,58.0,30.5,29.93,West,269,0.0,0.0,35,0.00,,,0.00,Wunderground v.1.15,2013-03-26 00:19:00,
2013-03-25 17:22:00,58.0,31.2,29.93,West,269,0.0,0.0,36,0.00,,,0.00,Wunderground v.1.15,2013-03-26 00:22:00,
2013-03-25 17:23:00,58.0,30.5,29.93,West,269,0.0,0.0,35,0.00,,,0.00,Wunderground v.1.15,2013-03-26 00:23:00,
2013-03-25 17:24:00,58.0,31.2,29.93,West,269,0.0,0.0,36,0.00,,,0.00,Wunderground v.1.15,2013-03-26 00:24:00,
2013-03-25 17:25:00,58.0,31.8,29.93,West,269,0.0,0.0,37,0.00,,,0.00,Wunderground v.1.15,2013-03-26 00:25:00,
2013-03-25 17:28:00,57.8,32.3,29.93,West,269,0.0,0.0,38,0.00,,,0.00,Wunderground v.1.15,2013-03-26 00:28:00,
2013-03-25 17:29:00,57.8,33.0,29.93,West,269,0.0,0.0,39,0.00,,,0.00,Wunderground v.1.15,2013-03-26 00:29:00,
2013-03-25 17:30:00,57.8,33.0,29.93,West,269,0.0,0.0,39,0.00,,,0.00,Wunderground v.1.15,2013-03-26 00:30:00,
2013-03-25 17:33:00,57.8,30.3,29.93,West,269,0.0,0.0,35,0.00,,,0.00,Wunderground v.1.15,2013-03-26 00:33:00,
2013-03-25 17:34:00,57.8,30.3,29.93,West,269,0.0,0.0,35,0.00,,,0.00,Wunderground v.1.15,2013-03-26 00:34:00,
2013-03-25 17:35:00,57.8,32.3,29.93,West,269,0.0,0.0,38,0.00,,,0.00,Wunderground v.1.15,2013-03-26 00:35:00,
2013-03-25 17:36:00,57.8,31.7,29.93,West,273,0.0,0.0,37,0.00,,,0.00,Wunderground v.1.15,2013-03-26 00:36:00,
2013-03-25 17:38:00,57.8,31.7,29.93,West,273,0.0,0.0,37,0.00,,,0.00,Wunderground v.1.15,2013-03-26 00:38:00,
2013-03-25 17:39:00,57.8,31.0,29.93,West,273,0.0,0.0,36,0.00,,,0.00,Wunderground v.1.15,2013-03-26 00:39:00,
2013-03-25 17:41:00,57.7,30.9,29.93,West,273,0.0,0.0,36,0.00,,,0.00,Wunderground v.1.15,2013-03-26 00:41:00,
2013-03-25 17:43:00,57.7,32.9,29.93,West,273,0.0,0.0,39,0.00,,,0.00,Wunderground v.1.15,2013-03-26 00:43:00,
2013-03-25 17:44:00,57.7,32.9,29.93,West,273,0.0,0.0,39,0.00,,,0.00,Wunderground v.1.15,2013-03-26 00:44:00,
2013-03-25 17:46:00,57.7,31.6,29.93,West,273,0.0,0.0,37,0.00,,,0.00,Wunderground v.1.15,2013-03-26 00:46:00,
2013-03-25 17:49:00,57.5,33.3,29.93,WNW,288,0.0,0.0,40,0.00,,,0.00,Wunderground v.1.15,2013-03-26 00:49:00,
2013-03-25 17:52:00,57.4,30.6,29.93,West,273,0.0,0.0,36,0.00,,,0.00,Wunderground v.1.15,2013-03-26 00:52:00,
2013-03-25 17:55:00,57.4,31.3,29.93,West,261,0.0,0.0,37,0.00,,,0.00,Wunderground v.1.15,2013-03-26 00:55:00,
2013-03-25 17:58:00,57.4,30.6,29.93,West,261,0.0,0.0,36,0.00,,,0.00,Wunderground v.1.15,2013-03-26 00:58:00,
2013-03-25 18:00:00,57.2,31.1,29.93,West,265,0.0,0.0,37,0.00,,,0.00,Wunderground v.1.15,2013-03-26 01:00:00,
2013-03-25 18:01:00,57.2,31.1,29.93,West,265,0.0,0.0,37,0.00,,,0.00,Wunderground v.1.15,2013-03-26 01:01:00,
2013-03-25 18:04:00,57.2,32.4,29.93,West,266,0.0,0.0,39,0.00,,,0.00,Wunderground v.1.15,2013-03-26 01:04:00,
2013-03-25 18:06:00,57.2,33.1,29.93,West,266,0.0,0.0,40,0.00,,,0.00,Wunderground v.1.15,2013-03-26 01:06:00,
2013-03-25 18:07:00,57.1,31.7,29.93,West,266,0.0,0.0,38,0.00,,,0.00,Wunderground v.1.15,2013-03-26 01:07:00,
2013-03-25 18:09:00,57.1,33.0,29.93,West,266,0.0,0.0,40,0.00,,,0.00,Wunderground v.1.15,2013-03-26 01:09:00,
2013-03-25 18:11:00,57.0,32.9,29.93,West,266,0.0,0.0,40,0.00,,,0.00,Wunderground v.1.15,2013-03-26 01:11:00,
2013-03-25 18:12:00,57.0,33.5,29.93,West,266,0.0,0.0,41,0.00,,,0.00,Wunderground v.1.15,2013-03-26 01:12:00,
2013-03-25 18:13:00,57.0,34.1,29.93,West,266,0.0,0.0,42,0.00,,,0.00,Wunderground v.1.15,2013-03-26 01:13:00,
2013-03-25 18:15:00,56.8,33.9,29.93,West,266,0.0,0.0,42,0.00,,,0.00,Wunderground v.1.15,2013-03-26 01:15:00,
2013-03-25 18:17:00,56.7,33.8,29.93,WSW,239,0.0,0.0,42,0.00,,,0.00,Wunderground v.1.15,2013-03-26 01:17:00,
2013-03-25 18:18:00,56.5,33.1,29.93,WSW,239,0.0,0.0,41,0.00,,,0.00,Wunderground v.1.15,2013-03-26 01:18:00,
2013-03-25 18:22:00,56.4,33.6,29.93,WSW,239,0.0,0.0,42,0.00,,,0.00,Wunderground v.1.15,2013-03-26 01:22:00,
2013-03-25 18:23:00,56.2,33.4,29.93,WSW,239,0.0,0.0,42,0.00,,,0.00,Wunderground v.1.15,2013-03-26 01:23:00,
2013-03-25 18:28:00,56.1,33.3,29.93,SW,236,0.0,0.0,42,0.00,,,0.00,Wunderground v.1.15,2013-03-26 01:28:00,
2013-03-25 18:29:00,55.9,33.7,29.93,SW,236,0.0,0.0,43,0.00,,,0.00,Wunderground v.1.15,2013-03-26 01:29:00,
2013-03-25 18:33:00,55.8,34.2,29.94,SW,236,0.0,0.0,44,0.00,,,0.00,Wunderground v.1.15,2013-03-26 01:33:00,
2013-03-25 18:34:00,55.8,34.8,29.94,SW,236,0.0,0.0,45,0.00,,,0.00,Wunderground v.1.15,2013-03-26 01:34:00,
2013-03-25 18:36:00,55.6,34.6,29.94,SW,236,0.0,0.0,45,0.00,,,0.00,Wunderground v.1.15,2013-03-26 01:36:00,
2013-03-25 18:39:00,55.3,33.7,29.94,SW,236,0.0,0.0,44,0.00,,,0.00,Wunderground v.1.15,2013-03-26 01:39:00,
2013-03-25 18:40:00,55.3,34.9,29.94,SW,236,0.0,0.0,46,0.00,,,0.00,Wunderground v.1.15,2013-03-26 01:40:00,
2013-03-25 18:43:00,55.2,34.8,29.94,SW,236,0.0,0.0,46,0.00,,,0.00,Wunderground v.1.15,2013-03-26 01:43:00,
2013-03-25 18:44:00,55.0,33.5,29.94,WSW,239,0.0,0.0,44,0.00,,,0.00,Wunderground v.1.15,2013-03-26 01:44:00,
2013-03-25 18:45:00,55.0,33.5,29.94,WSW,239,0.0,0.0,44,0.00,,,0.00,Wunderground v.1.15,2013-03-26 01:45:00,
2013-03-25 18:48:00,54.9,33.9,29.94,WSW,239,0.0,0.0,45,0.00,,,0.00,Wunderground v.1.15,2013-03-26 01:48:00,
2013-03-25 18:50:00,54.9,33.9,29.94,WSW,239,0.0,0.0,45,0.00,,,0.00,Wunderground v.1.15,2013-03-26 01:50:00,
2013-03-25 18:51:00,54.7,34.8,29.94,WSW,239,0.0,0.0,47,0.00,,,0.00,Wunderground v.1.15,2013-03-26 01:51:00,
2013-03-25 18:54:00,54.6,34.8,29.94,WSW,239,0.0,0.0,47,0.00,,,0.00,Wunderground v.1.15,2013-03-26 01:54:00,
2013-03-25 18:55:00,54.6,34.8,29.94,WSW,239,0.0,0.0,47,0.00,,,0.00,Wunderground v.1.15,2013-03-26 01:55:00,
2013-03-25 18:56:00,54.6,35.3,29.94,WSW,239,0.0,0.0,48,0.00,,,0.00,Wunderground v.1.15,2013-03-26 01:56:00,
2013-03-25 19:00:00,54.3,34.5,29.94,WSW,239,0.0,0.0,47,0.00,,,0.00,Wunderground v.1.15,2013-03-26 02:00:00,
2013-03-25 19:01:00,54.3,35.0,29.94,WSW,239,0.0,0.0,48,0.00,,,0.00,Wunderground v.1.15,2013-03-26 02:01:00,
2013-03-25 19:02:00,54.1,35.3,29.94,WSW,239,0.0,0.0,49,0.00,,,0.00,Wunderground v.1.15,2013-03-26 02:02:00,
2013-03-25 19:03:00,54.1,35.3,29.94,WSW,239,0.0,0.0,49,0.00,,,0.00,Wunderground v.1.15,2013-03-26 02:03:00,
2013-03-25 19:05:00,54.0,35.8,29.94,WSW,239,0.0,0.0,50,0.00,,,0.00,Wunderground v.1.15,2013-03-26 02:05:00,
2013-03-25 19:07:00,53.8,36.6,29.94,WSW,239,0.0,0.0,52,0.00,,,0.00,Wunderground v.1.15,2013-03-26 02:07:00,
2013-03-25 19:08:00,53.7,36.5,29.94,WSW,239,0.0,0.0,52,0.00,,,0.00,Wunderground v.1.15,2013-03-26 02:08:00,
2013-03-25 19:09:00,53.7,36.0,29.94,WSW,239,0.0,0.0,51,0.00,,,0.00,Wunderground v.1.15,2013-03-26 02:09:00,
2013-03-25 19:11:00,53.6,35.4,29.94,WSW,239,0.0,0.0,50,0.00,,,0.00,Wunderground v.1.15,2013-03-26 02:11:00,
2013-03-25 19:13:00,53.4,36.7,29.94,WSW,239,0.0,0.0,53,0.00,,,0.00,Wunderground v.1.15,2013-03-26 02:13:00,
2013-03-25 19:16:00,53.3,36.1,29.94,WSW,239,0.0,0.0,52,0.00,,,0.00,Wunderground v.1.15,2013-03-26 02:16:00,
2013-03-25 19:18:00,53.1,36.4,29.94,WSW,239,0.0,0.0,53,0.00,,,0.00,Wunderground v.1.15,2013-03-26 02:18:00,
2013-03-25 19:22:00,53.1,36.4,29.94,WSW,239,0.0,0.0,53,0.00,,,0.00,Wunderground v.1.15,2013-03-26 02:22:00,
2013-03-25 19:24:00,53.1,36.4,29.94,WSW,239,0.0,0.0,53,0.00,,,0.00,Wunderground v.1.15,2013-03-26 02:24:00,
2013-03-25 19:27:00,53.1,36.4,29.94,WSW,239,0.0,0.0,53,0.00,,,0.00,Wunderground v.1.15,2013-03-26 02:27:00,
2013-03-25 19:29:00,-999.9,-99.9,29.94,North,32767,-999.0,0.0,255,-99.99,,,0.00,Wunderground v.1.15,2013-03-26 02:29:00,
2013-03-25 19:32:00,-999.9,-99.9,29.94,North,32767,-999.0,-999.0,255,-99.99,,,0.00,Wunderground v.1.15,2013-03-26 02:32:00,
2013-03-25 19:33:00,-999.9,-99.9,29.94,North,32767,-999.0,-999.0,255,-99.99,,,0.00,Wunderground v.1.15,2013-03-26 02:33:00,
2013-03-25 19:34:00,-999.9,-99.9,29.94,North,32767,-999.0,-999.0,255,-99.99,,,0.00,Wunderground v.1.15,2013-03-26 02:34:00,
2013-03-25 19:36:00,-999.9,-99.9,29.94,North,32767,-999.0,-999.0,255,-99.99,,,0.00,Wunderground v.1.15,2013-03-26 02:36:00,
2013-03-25 19:37:00,-999.9,-99.9,29.94,North,32767,-999.0,-999.0,255,-99.99,,,0.00,Wunderground v.1.15,2013-03-26 02:37:00,
2013-03-25 19:38:00,-999.9,-99.9,29.94,North,32767,-999.0,-999.0,255,-99.99,,,0.00,Wunderground v.1.15,2013-03-26 02:38:00,
2013-03-25 19:40:00,-999.9,-99.9,29.94,North,32767,-999.0,-999.0,255,-99.99,,,0.00,Wunderground v.1.15,2013-03-26 02:40:00,
2013-03-25 19:42:00,-999.9,-99.9,29.94,North,32767,-999.0,-999.0,255,-99.99,,,0.00,Wunderground v.1.15,2013-03-26 02:42:00,
2013-03-25 19:43:00,-999.9,-99.9,29.94,North,32767,-999.0,-999.0,255,-99.99,,,0.00,Wunderground v.1.15,2013-03-26 02:43:00,
2013-03-25 19:46:00,-999.9,-99.9,29.94,North,32767,-999.0,-999.0,255,-99.99,,,0.00,Wunderground v.1.15,2013-03-26 02:46:00,
2013-03-25 19:47:00,-999.9,-99.9,29.94,North,32767,-999.0,-999.0,255,-99.99,,,0.00,Wunderground v.1.15,2013-03-26 02:47:00,
2013-03-25 19:48:00,-999.9,-99.9,29.94,North,32767,-999.0,-999.0,255,-99.99,,,0.00,Wunderground v.1.15,2013-03-26 02:48:00,
2013-03-25 19:49:00,-999.9,-99.9,29.94,North,32767,-999.0,-999.0,255,-99.99,,,0.00,Wunderground v.1.15,2013-03-26 02:49:00,
2013-03-25 19:51:00,-999.9,-99.9,29.94,North,32767,-999.0,-999.0,255,-99.99,,,0.00,Wunderground v.1.15,2013-03-26 02:51:00,
2013-03-25 19:53:00,-999.9,-99.9,29.94,North,32767,-999.0,-999.0,255,-99.99,,,0.00,Wunderground v.1.15,2013-03-26 02:53:00,
2013-03-25 19:54:00,-999.9,-99.9,29.94,North,32767,-999.0,-999.0,255,-99.99,,,0.00,Wunderground v.1.15,2013-03-26 02:54:00,
2013-03-25 19:55:00,-999.9,-99.9,29.94,North,32767,-999.0,-999.0,255,-99.99,,,0.00,Wunderground v.1.15,2013-03-26 02:55:00,
2013-03-25 19:58:00,-999.9,-99.9,29.94,North,32767,-999.0,-999.0,255,-99.99,,,0.00,Wunderground v.1.15,2013-03-26 02:58:00,
2013-03-25 20:00:00,-999.9,-99.9,29.94,North,32767,-999.0,-999.0,255,-99.99,,,0.00,Wunderground v.1.15,2013-03-26 03:00:00,
2013-03-25 20:01:00,-999.9,-99.9,29.94,North,32767,-999.0,-999.0,255,-99.99,,,0.00,Wunderground v.1.15,2013-03-26 03:01:00,
2013-03-25 20:03:00,-999.9,-99.9,29.94,North,32767,-999.0,-999.0,255,-99.99,,,0.00,Wunderground v.1.15,2013-03-26 03:03:00,
2013-03-25 20:06:00,-999.9,-99.9,29.94,North,32767,-999.0,-999.0,255,-99.99,,,0.00,Wunderground v.1.15,2013-03-26 03:06:00,
2013-03-25 20:07:00,-999.9,-99.9,29.94,North,32767,-999.0,-999.0,255,-99.99,,,0.00,Wunderground v.1.15,2013-03-26 03:07:00,
2013-03-25 20:09:00,-999.9,-99.9,29.94,North,32767,-999.0,-999.0,255,-99.99,,,0.00,Wunderground v.1.15,2013-03-26 03:09:00,
2013-03-25 20:11:00,-999.9,-99.9,29.94,North,32767,-999.0,-999.0,255,-99.99,,,0.00,Wunderground v.1.15,2013-03-26 03:11:00,
2013-03-25 20:12:00,-999.9,-99.9,29.94,North,32767,-999.0,-999.0,255,-99.99,,,0.00,Wunderground v.1.15,2013-03-26 03:12:00,
2013-03-25 20:14:00,-999.9,-99.9,29.94,North,32767,-999.0,-999.0,255,-99.99,,,0.00,Wunderground v.1.15,2013-03-26 03:14:00,
2013-03-25 20:15:00,-999.9,-99.9,29.94,North,32767,-999.0,-999.0,255,-99.99,,,0.00,Wunderground v.1.15,2013-03-26 03:15:00,
2013-03-25 20:17:00,-999.9,-99.9,29.94,North,32767,-999.0,-999.0,255,-99.99,,,0.00,Wunderground v.1.15,2013-03-26 03:17:00,
2013-03-25 20:19:00,-999.9,-99.9,29.94,North,32767,-999.0,-999.0,255,-99.99,,,0.00,Wunderground v.1.15,2013-03-26 03:19:00,
2013-03-25 20:20:00,-999.9,-99.9,29.94,North,32767,-999.0,-999.0,255,-99.99,,,0.00,Wunderground v.1.15,2013-03-26 03:20:00,
2013-03-25 20:22:00,-999.9,-99.9,29.94,North,32767,-999.0,-999.0,255,-99.99,,,0.00,Wunderground v.1.15,2013-03-26 03:22:00,
2013-03-25 20:24:00,-999.9,-99.9,29.94,North,32767,-999.0,-999.0,255,-99.99,,,0.00,Wunderground v.1.15,2013-03-26 03:24:00,
2013-03-25 20:25:00,-999.9,-99.9,29.94,North,32767,-999.0,-999.0,255,-99.99,,,0.00,Wunderground v.1.15,2013-03-26 03:25:00,
2013-03-25 20:26:00,-999.9,-99.9,29.94,North,32767,-999.0,-999.0,255,-99.99,,,0.00,Wunderground v.1.15,2013-03-26 03:26:00,
2013-03-25 20:27:00,-999.9,-99.9,29.94,North,32767,-999.0,-999.0,255,-99.99,,,0.00,Wunderground v.1.15,2013-03-26 03:27:00,
2013-03-25 20:29:00,-999.9,-99.9,29.94,North,32767,-999.0,-999.0,255,-99.99,,,0.00,Wunderground v.1.15,2013-03-26 03:29:00,
2013-03-25 20:30:00,-999.9,-99.9,29.94,North,32767,-999.0,-999.0,255,-99.99,,,0.00,Wunderground v.1.15,2013-03-26 03:30:00,
2013-03-25 20:32:00,-999.9,-99.9,29.94,North,32767,-999.0,-999.0,255,-99.99,,,0.00,Wunderground v.1.15,2013-03-26 03:32:00,
2013-03-25 20:35:00,-999.9,-99.9,29.94,North,32767,-999.0,-999.0,255,-99.99,,,0.00,Wunderground v.1.15,2013-03-26 03:35:00,
2013-03-25 20:37:00,-999.9,-99.9,29.94,North,32767,-999.0,-999.0,255,-99.99,,,0.00,Wunderground v.1.15,2013-03-26 03:37:00,
2013-03-25 20:38:00,-999.9,-99.9,29.94,North,32767,-999.0,-999.0,255,-99.99,,,0.00,Wunderground v.1.15,2013-03-26 03:38:00,
2013-03-25 20:42:00,-999.9,-99.9,29.94,North,32767,-999.0,-999.0,255,-99.99,,,0.00,Wunderground v.1.15,2013-03-26 03:42:00,
2013-03-25 20:44:00,-999.9,-99.9,29.94,North,32767,-999.0,-999.0,255,-99.99,,,0.00,Wunderground v.1.15,2013-03-26 03:44:00,
2013-03-25 20:47:00,-999.9,-99.9,29.94,North,32767,-999.0,-999.0,255,-99.99,,,0.00,Wunderground v.1.15,2013-03-26 03:47:00,
2013-03-25 20:48:00,-999.9,-99.9,29.94,North,32767,-999.0,-999.0,255,-99.99,,,0.00,Wunderground v.1.15,2013-03-26 03:48:00,
2013-03-25 20:49:00,-999.9,-99.9,29.94,North,32767,-999.0,-999.0,255,-99.99,,,0.00,Wunderground v.1.15,2013-03-26 03:49:00,
2013-03-25 20:52:00,-999.9,-99.9,29.94,North,32767,-999.0,-999.0,255,-99.99,,,0.00,Wunderground v.1.15,2013-03-26 03:52:00,
2013-03-25 20:53:00,-999.9,-99.9,29.94,North,32767,-999.0,-999.0,255,-99.99,,,0.00,Wunderground v.1.15,2013-03-26 03:53:00,
2013-03-25 20:54:00,-999.9,-99.9,29.94,North,32767,-999.0,-999.0,255,-99.99,,,0.00,Wunderground v.1.15,2013-03-26 03:54:00,
2013-03-25 20:57:00,-999.9,-99.9,29.94,North,32767,-999.0,-999.0,255,-99.99,,,0.00,Wunderground v.1.15,2013-03-26 03:57:00,
2013-03-25 20:58:00,-999.9,-99.9,29.94,North,32767,-999.0,-999.0,255,-99.99,,,0.00,Wunderground v.1.15,2013-03-26 03:58:00,
2013-03-25 21:00:00,-999.9,-99.9,29.94,North,32767,-999.0,-999.0,255,-99.99,,,0.00,Wunderground v.1.15,2013-03-26 04:00:00,
2013-03-25 21:05:00,-999.9,-99.9,29.95,North,32767,-999.0,-999.0,255,-99.99,,,0.00,Wunderground v.1.15,2013-03-26 04:05:00,
2013-03-25 21:08:00,-999.9,-99.9,29.95,North,32767,-999.0,-999.0,255,-99.99,,,0.00,Wunderground v.1.15,2013-03-26 04:08:00,
2013-03-25 21:10:00,-999.9,-99.9,29.95,North,32767,-999.0,-999.0,255,-99.99,,,0.00,Wunderground v.1.15,2013-03-26 04:10:00,
2013-03-25 21:11:00,-999.9,-99.9,29.95,North,32767,-999.0,-999.0,255,-99.99,,,0.00,Wunderground v.1.15,2013-03-26 04:11:00,
2013-03-25 21:13:00,-999.9,-99.9,29.95,North,32767,-999.0,-999.0,255,-99.99,,,0.00,Wunderground v.1.15,2013-03-26 04:13:00,
2013-03-25 21:16:00,-999.9,-99.9,29.95,North,32767,-999.0,-999.0,255,-99.99,,,0.00,Wunderground v.1.15,2013-03-26 04:16:00,
2013-03-25 21:17:00,-999.9,-99.9,29.95,North,32767,-999.0,-999.0,255,-99.99,,,0.00,Wunderground v.1.15,2013-03-26 04:17:00,
2013-03-25 21:18:00,-999.9,-99.9,29.95,North,32767,-999.0,-999.0,255,-99.99,,,0.00,Wunderground v.1.15,2013-03-26 04:18:00,
2013-03-25 21:22:00,-999.9,-99.9,29.95,North,32767,-999.0,-999.0,255,-99.99,,,0.00,Wunderground v.1.15,2013-03-26 04:22:00,
2013-03-25 21:23:00,-999.9,-99.9,29.95,North,32767,-999.0,-999.0,255,-99.99,,,0.00,Wunderground v.1.15,2013-03-26 04:23:00,
2013-03-25 21:24:00,-999.9,-99.9,29.95,North,32767,-999.0,-999.0,255,-99.99,,,0.00,Wunderground v.1.15,2013-03-26 04:24:00,
2013-03-25 21:27:00,-999.9,-99.9,29.95,North,32767,-999.0,-999.0,255,-99.99,,,0.00,Wunderground v.1.15,2013-03-26 04:27:00,
2013-03-25 21:28:00,-999.9,-99.9,29.95,North,32767,-999.0,-999.0,255,-99.99,,,0.00,Wunderground v.1.15,2013-03-26 04:28:00,
2013-03-25 21:29:00,-999.9,-99.9,29.95,North,32767,-999.0,-999.0,255,-99.99,,,0.00,Wunderground v.1.15,2013-03-26 04:29:00,
2013-03-25 21:33:00,-999.9,-99.9,29.95,North,32767,-999.0,-999.0,255,-99.99,,,0.00,Wunderground v.1.15,2013-03-26 04:33:00,
2013-03-25 21:34:00,-999.9,-99.9,29.95,North,32767,-999.0,-999.0,255,-99.99,,,0.00,Wunderground v.1.15,2013-03-26 04:34:00,
2013-03-25 21:35:00,-999.9,-99.9,29.95,North,32767,-999.0,-999.0,255,-99.99,,,0.00,Wunderground v.1.15,2013-03-26 04:35:00,
2013-03-25 21:38:00,-999.9,-99.9,29.95,North,32767,-999.0,-999.0,255,-99.99,,,0.00,Wunderground v.1.15,2013-03-26 04:38:00,
2013-03-25 21:39:00,-999.9,-99.9,29.95,North,32767,-999.0,-999.0,255,-99.99,,,0.00,Wunderground v.1.15,2013-03-26 04:39:00,
2013-03-25 21:41:00,-999.9,-99.9,29.95,North,32767,-999.0,-999.0,255,-99.99,,,0.00,Wunderground v.1.15,2013-03-26 04:41:00,
2013-03-25 21:43:00,-999.9,-99.9,29.95,North,32767,-999.0,-999.0,255,-99.99,,,0.00,Wunderground v.1.15,2013-03-26 04:43:00,
2013-03-25 21:45:00,-999.9,-99.9,29.95,North,32767,-999.0,-999.0,255,-99.99,,,0.00,Wunderground v.1.15,2013-03-26 04:45:00,
2013-03-25 21:47:00,-999.9,-99.9,29.96,North,32767,-999.0,-999.0,255,-99.99,,,0.00,Wunderground v.1.15,2013-03-26 04:47:00,
2013-03-25 21:48:00,-999.9,-99.9,29.96,North,32767,-999.0,-999.0,255,-99.99,,,0.00,Wunderground v.1.15,2013-03-26 04:48:00,
2013-03-25 21:51:00,-999.9,-99.9,29.96,North,32767,-999.0,-999.0,255,-99.99,,,0.00,Wunderground v.1.15,2013-03-26 04:51:00,
2013-03-25 21:52:00,-999.9,-99.9,29.96,North,32767,-999.0,-999.0,255,-99.99,,,0.00,Wunderground v.1.15,2013-03-26 04:52:00,
2013-03-25 21:53:00,-999.9,-99.9,29.96,North,32767,-999.0,-999.0,255,-99.99,,,0.00,Wunderground v.1.15,2013-03-26 04:53:00,
2013-03-25 21:56:00,-999.9,-99.9,29.96,North,32767,-999.0,-999.0,255,-99.99,,,0.00,Wunderground v.1.15,2013-03-26 04:56:00,
2013-03-25 21:57:00,-999.9,-99.9,29.96,North,32767,-999.0,-999.0,255,-99.99,,,0.00,Wunderground v.1.15,2013-03-26 04:57:00,
2013-03-25 21:58:00,-999.9,-99.9,29.96,North,32767,-999.0,-999.0,255,-99.99,,,0.00,Wunderground v.1.15,2013-03-26 04:58:00,
2013-03-25 21:59:00,-999.9,-99.9,29.96,North,32767,-999.0,-999.0,255,-99.99,,,0.00,Wunderground v.1.15,2013-03-26 04:59:00,
2013-03-25 22:03:00,-999.9,-99.9,29.96,North,32767,-999.0,-999.0,255,-99.99,,,0.00,Wunderground v.1.15,2013-03-26 05:03:00,
2013-03-25 22:04:00,-999.9,-99.9,29.96,North,32767,-999.0,-999.0,255,-99.99,,,0.00,Wunderground v.1.15,2013-03-26 05:04:00,
2013-03-25 22:08:00,-999.9,-99.9,29.96,North,32767,-999.0,-999.0,255,-99.99,,,0.00,Wunderground v.1.15,2013-03-26 05:08:00,
2013-03-25 22:09:00,-999.9,-99.9,29.96,North,32767,-999.0,-999.0,255,-99.99,,,0.00,Wunderground v.1.15,2013-03-26 05:09:00,
2013-03-25 22:14:00,-999.9,-99.9,29.96,North,32767,-999.0,-999.0,255,-99.99,,,0.00,Wunderground v.1.15,2013-03-26 05:14:00,
2013-03-25 22:15:00,-999.9,-99.9,29.96,North,32767,-999.0,-999.0,255,-99.99,,,0.00,Wunderground v.1.15,2013-03-26 05:15:00,
2013-03-25 22:19:00,-999.9,-99.9,29.96,North,32767,-999.0,-999.0,255,-99.99,,,0.00,Wunderground v.1.15,2013-03-26 05:19:00,
2013-03-25 22:20:00,-999.9,-99.9,29.96,North,32767,-999.0,-999.0,255,-99.99,,,0.00,Wunderground v.1.15,2013-03-26 05:20:00,
2013-03-25 22:21:00,-999.9,-99.9,29.96,North,32767,-999.0,-999.0,255,-99.99,,,0.00,Wunderground v.1.15,2013-03-26 05:21:00,
2013-03-25 22:23:00,-999.9,-99.9,29.96,North,32767,-999.0,-999.0,255,-99.99,,,0.00,Wunderground v.1.15,2013-03-26 05:23:00,
2013-03-25 22:25:00,-999.9,-99.9,29.96,North,32767,-999.0,-999.0,255,-99.99,,,0.00,Wunderground v.1.15,2013-03-26 05:25:00,
2013-03-25 22:28:00,-999.9,-99.9,29.96,North,32767,-999.0,-999.0,255,-99.99,,,0.00,Wunderground v.1.15,2013-03-26 05:28:00,
2013-03-25 22:30:00,-999.9,-99.9,29.96,North,32767,-999.0,-999.0,255,-99.99,,,0.00,Wunderground v.1.15,2013-03-26 05:30:00,
2013-03-25 22:33:00,-999.9,-99.9,29.96,North,32767,-999.0,-999.0,255,-99.99,,,0.00,Wunderground v.1.15,2013-03-26 05:33:00,
2013-03-25 22:34:00,-999.9,-99.9,29.96,North,32767,-999.0,-999.0,255,-99.99,,,0.00,Wunderground v.1.15,2013-03-26 05:34:00,
2013-03-25 22:35:00,-999.9,-99.9,29.96,North,32767,-999.0,-999.0,255,-99.99,,,0.00,Wunderground v.1.15,2013-03-26 05:35:00,
2013-03-25 22:39:00,-999.9,-99.9,29.96,North,32767,-999.0,-999.0,255,-99.99,,,0.00,Wunderground v.1.15,2013-03-26 05:39:00,
2013-03-25 22:40:00,-999.9,-99.9,29.96,North,32767,-999.0,-999.0,255,-99.99,,,0.00,Wunderground v.1.15,2013-03-26 05:40:00,
2013-03-25 22:41:00,-999.9,-99.9,29.96,North,32767,-999.0,-999.0,255,-99.99,,,0.00,Wunderground v.1.15,2013-03-26 05:41:00,
2013-03-25 22:44:00,-999.9,-99.9,29.96,North,32767,-999.0,-999.0,255,-99.99,,,0.00,Wunderground v.1.15,2013-03-26 05:44:00,
2013-03-25 22:45:00,-999.9,-99.9,29.96,North,32767,-999.0,-999.0,255,-99.99,,,0.00,Wunderground v.1.15,2013-03-26 05:45:00,
2013-03-25 22:46:00,-999.9,-99.9,29.96,North,32767,-999.0,-999.0,255,-99.99,,,0.00,Wunderground v.1.15,2013-03-26 05:46:00,
2013-03-25 22:47:00,-999.9,-99.9,29.96,North,32767,-999.0,-999.0,255,-99.99,,,0.00,Wunderground v.1.15,2013-03-26 05:47:00,
2013-03-25 22:49:00,-999.9,-99.9,29.96,North,32767,-999.0,-999.0,255,-99.99,,,0.00,Wunderground v.1.15,2013-03-26 05:49:00,
2013-03-25 22:50:00,-999.9,-99.9,29.96,North,32767,-999.0,-999.0,255,-99.99,,,0.00,Wunderground v.1.15,2013-03-26 05:50:00,
2013-03-25 22:51:00,-999.9,-99.9,29.96,North,32767,-999.0,-999.0,255,-99.99,,,0.00,Wunderground v.1.15,2013-03-26 05:51:00,
2013-03-25 22:53:00,-999.9,-99.9,29.96,North,32767,-999.0,-999.0,255,-99.99,,,0.00,Wunderground v.1.15,2013-03-26 05:53:00,
2013-03-25 22:55:00,-999.9,-99.9,29.96,North,32767,-999.0,-999.0,255,-99.99,,,0.00,Wunderground v.1.15,2013-03-26 05:55:00,
2013-03-25 22:56:00,-999.9,-99.9,29.96,North,32767,-999.0,-999.0,255,-99.99,,,0.00,Wunderground v.1.15,2013-03-26 05:56:00,
2013-03-25 22:57:00,-999.9,-99.9,29.96,North,32767,-999.0,-999.0,255,-99.99,,,0.00,Wunderground v.1.15,2013-03-26 05:57:00,
2013-03-25 22:58:00,-999.9,-99.9,29.96,North,32767,-999.0,-999.0,255,-99.99,,,0.00,Wunderground v.1.15,2013-03-26 05:58:00,
2013-03-25 23:01:00,-999.9,-99.9,29.96,North,32767,-999.0,-999.0,255,-99.99,,,0.00,Wunderground v.1.15,2013-03-26 06:01:00,
2013-03-25 23:02:00,-999.9,-99.9,29.96,North,32767,-999.0,-999.0,255,-99.99,,,0.00,Wunderground v.1.15,2013-03-26 06:02:00,
2013-03-25 23:03:00,-999.9,-99.9,29.96,North,32767,-999.0,-999.0,255,-99.99,,,0.00,Wunderground v.1.15,2013-03-26 06:03:00,
2013-03-25 23:07:00,-999.9,-99.9,29.96,North,32767,-999.0,-999.0,255,-99.99,,,0.00,Wunderground v.1.15,2013-03-26 06:07:00,
2013-03-25 23:08:00,-999.9,-99.9,29.96,North,32767,-999.0,-999.0,255,-99.99,,,0.00,Wunderground v.1.15,2013-03-26 06:08:00,
2013-03-25 23:12:00,-999.9,-99.9,29.96,North,32767,-999.0,-999.0,255,-99.99,,,0.00,Wunderground v.1.15,2013-03-26 06:12:00,
2013-03-25 23:13:00,-999.9,-99.9,29.96,North,32767,-999.0,-999.0,255,-99.99,,,0.00,Wunderground v.1.15,2013-03-26 06:13:00,
2013-03-25 23:14:00,-999.9,-99.9,29.96,North,32767,-999.0,-999.0,255,-99.99,,,0.00,Wunderground v.1.15,2013-03-26 06:14:00,
2013-03-25 23:17:00,-999.9,-99.9,29.96,North,32767,-999.0,-999.0,255,-99.99,,,0.00,Wunderground v.1.15,2013-03-26 06:17:00,
2013-03-25 23:18:00,-999.9,-99.9,29.96,North,32767,-999.0,-999.0,255,-99.99,,,0.00,Wunderground v.1.15,2013-03-26 06:18:00,
2013-03-25 23:19:00,-999.9,-99.9,29.96,North,32767,-999.0,-999.0,255,-99.99,,,0.00,Wunderground v.1.15,2013-03-26 06:19:00,
2013-03-25 23:22:00,-999.9,-99.9,29.96,North,32767,-999.0,-999.0,255,-99.99,,,0.00,Wunderground v.1.15,2013-03-26 06:22:00,
2013-03-25 23:23:00,-999.9,-99.9,29.96,North,32767,-999.0,-999.0,255,-99.99,,,0.00,Wunderground v.1.15,2013-03-26 06:23:00,
2013-03-25 23:24:00,-999.9,-99.9,29.96,North,32767,-999.0,-999.0,255,-99.99,,,0.00,Wunderground v.1.15,2013-03-26 06:24:00,
2013-03-25 23:27:00,-999.9,-99.9,29.96,North,32767,-999.0,-999.0,255,-99.99,,,0.00,Wunderground v.1.15,2013-03-26 06:27:00,
2013-03-25 23:28:00,-999.9,-99.9,29.96,North,32767,-999.0,-999.0,255,-99.99,,,0.00,Wunderground v.1.15,2013-03-26 06:28:00,
2013-03-25 23:29:00,-999.9,-99.9,29.96,North,32767,-999.0,-999.0,255,-99.99,,,0.00,Wunderground v.1.15,2013-03-26 06:29:00,
2013-03-25 23:30:00,-999.9,-99.9,29.96,North,32767,-999.0,-999.0,255,-99.99,,,0.00,Wunderground v.1.15,2013-03-26 06:30:00,
2013-03-25 23:33:00,-999.9,-99.9,29.96,North,32767,-999.0,-999.0,255,-99.99,,,0.00,Wunderground v.1.15,2013-03-26 06:33:00,
2013-03-25 23:34:00,-999.9,-99.9,29.96,North,32767,-999.0,-999.0,255,-99.99,,,0.00,Wunderground v.1.15,2013-03-26 06:34:00,
2013-03-25 23:35:00,-999.9,-99.9,29.96,North,32767,-999.0,-999.0,255,-99.99,,,0.00,Wunderground v.1.15,2013-03-26 06:35:00,
2013-03-25 23:38:00,-999.9,-99.9,29.96,North,32767,-999.0,-999.0,255,-99.99,,,0.00,Wunderground v.1.15,2013-03-26 06:38:00,
2013-03-25 23:39:00,-999.9,-99.9,29.96,North,32767,-999.0,-999.0,255,-99.99,,,0.00,Wunderground v.1.15,2013-03-26 06:39:00,
2013-03-25 23:42:00,-999.9,-99.9,29.96,North,32767,-999.0,-999.0,255,-99.99,,,0.00,Wunderground v.1.15,2013-03-26 06:42:00,
2013-03-25 23:44:00,-999.9,-99.9,29.96,North,32767,-999.0,-999.0,255,-99.99,,,0.00,Wunderground v.1.15,2013-03-26 06:44:00,
2013-03-25 23:45:00,-999.9,-99.9,29.96,North,32767,-999.0,-999.0,255,-99.99,,,0.00,Wunderground v.1.15,2013-03-26 06:45:00,
2013-03-25 23:48:00,-999.9,-99.9,29.97,North,32767,-999.0,-999.0,255,-99.99,,,0.00,Wunderground v.1.15,2013-03-26 06:48:00,
2013-03-25 23:49:00,-999.9,-99.9,29.97,North,32767,-999.0,-999.0,255,-99.99,,,0.00,Wunderground v.1.15,2013-03-26 06:49:00,
2013-03-25 23:51:00,-999.9,-99.9,29.97,North,32767,-999.0,-999.0,255,-99.99,,,0.00,Wunderground v.1.15,2013-03-26 06:51:00,
2013-03-25 23:53:00,-999.9,-99.9,29.97,North,32767,-999.0,-999.0,255,-99.99,,,0.00,Wunderground v.1.15,2013-03-26 06:53:00,
2013-03-25 23:55:00,-999.9,-99.9,29.97,North,32767,-999.0,-999.0,255,-99.99,,,0.00,Wunderground v.1.15,2013-03-26 06:55:00,
2013-03-25 23:56:00,-999.9,-99.9,29.97,North,32767,-999.0,-999.0,255,-99.99,,,0.00,Wunderground v.1.15,2013-03-26 06:56:00,
2013-03-25 23:58:00,-999.9,-99.9,29.97,North,32767,-999.0,-999.0,255,-99.99,,,0.00,Wunderground v.1.15,2013-03-26 06:58:00,